CAL1710 KPAE-RCTP
Flight info
| Callsign | CAL1710 |
|---|---|
| Flight time | 12h 57m |
| Altitude | 32000 |
| Route | PERLL DCT ARRIE J523 TOU DCT FINGS DCT KATCH B757 CJAYY DCT 58N160W DCT SPY/N0484F340 G469 CREMR DCT EDWAL DCT NATES R220 NIKLL/N0485F350 R220 NOGAL/N0490F360 R220 IXE Y88 SWING Y121 LABEL Y50 SUKMO/N0482F380 Y50 IGMON A1 DRAKE DRAKE1A |
| Aircraft | B77W/H-SDE1E2E3FGHIJ2J3J5M1P2RWY/LB1D1 |
Departure
| Time | 2026-05-04 15:47 |
|---|---|
| Airport | Seattle Paine Field International Airport (KPAE) |
Arrival
| Time | 2026-05-05 04:45 |
|---|---|
| Airport | Taiwan Taoyuan International Airport (RCTP) |
| Time | Latitude | Longitude | Altitude | Speed | Heading |
|---|---|---|---|---|---|
| 2026-05-04 15:18 | 47.91681 | -122.27945 | 569 ft | 0 kts | 91° |
| 2026-05-04 15:36 | 47.91679 | -122.27972 | 567 ft | 2 kts | 72° |
| 2026-05-04 15:36 | 47.91673 | -122.27992 | 567 ft | 2 kts | 61° |
| 2026-05-04 15:36 | 47.91665 | -122.28011 | 566 ft | 2 kts | 48° |
| 2026-05-04 15:37 | 47.91654 | -122.28026 | 565 ft | 2 kts | 35° |
| 2026-05-04 15:37 | 47.91641 | -122.28037 | 565 ft | 2 kts | 22° |
| 2026-05-04 15:37 | 47.91627 | -122.28044 | 564 ft | 2 kts | 10° |
| 2026-05-04 15:37 | 47.91613 | -122.28046 | 564 ft | 0 kts | 359° |
| 2026-05-04 15:38 | 47.91611 | -122.28046 | 564 ft | 0 kts | 358° |
| 2026-05-04 15:41 | 47.91629 | -122.28047 | 564 ft | 5 kts | 359° |
| 2026-05-04 15:42 | 47.91687 | -122.28047 | 564 ft | 10 kts | 0° |
| 2026-05-04 15:42 | 47.91769 | -122.28046 | 565 ft | 12 kts | 0° |
| 2026-05-04 15:42 | 47.91856 | -122.28046 | 567 ft | 13 kts | 0° |
| 2026-05-04 15:42 | 47.91953 | -122.28046 | 567 ft | 14 kts | 0° |
| 2026-05-04 15:43 | 47.92061 | -122.28046 | 565 ft | 16 kts | 0° |
| 2026-05-04 15:43 | 47.92126 | -122.28047 | 564 ft | 6 kts | 345° |
| 2026-05-04 15:43 | 47.92156 | -122.28122 | 561 ft | 12 kts | 283° |
| 2026-05-04 15:43 | 47.92164 | -122.28180 | 558 ft | 0 kts | 278° |
| 2026-05-04 15:44 | 47.92164 | -122.28183 | 558 ft | 2 kts | 278° |
| 2026-05-04 15:44 | 47.92167 | -122.28245 | 555 ft | 8 kts | 270° |
| 2026-05-04 15:44 | 47.92160 | -122.28354 | 553 ft | 11 kts | 264° |
| 2026-05-04 15:44 | 47.92153 | -122.28462 | 555 ft | 9 kts | 264° |
| 2026-05-04 15:45 | 47.92145 | -122.28544 | 557 ft | 6 kts | 246° |
| 2026-05-04 15:45 | 47.92117 | -122.28579 | 558 ft | 5 kts | 198° |
| 2026-05-04 15:45 | 47.92079 | -122.28585 | 559 ft | 5 kts | 178° |
| 2026-05-04 15:45 | 47.92066 | -122.28584 | 559 ft | 0 kts | 179° |
| 2026-05-04 15:46 | 47.92025 | -122.28584 | 560 ft | 28 kts | 179° |
| 2026-05-04 15:46 | 47.91569 | -122.28571 | 565 ft | 101 kts | 179° |
| 2026-05-04 15:47 | 47.90634 | -122.28553 | 582 ft | 166 kts | 179° |
| 2026-05-04 15:47 | 47.89350 | -122.28522 | 971 ft | 192 kts | 179° |
| 2026-05-04 15:47 | 47.88038 | -122.28477 | 1844 ft | 194 kts | 179° |
| 2026-05-04 15:47 | 47.86677 | -122.28490 | 2210 ft | 205 kts | 189° |
| 2026-05-04 15:48 | 47.85343 | -122.29439 | 2368 ft | 225 kts | 226° |
| 2026-05-04 15:48 | 47.84535 | -122.31502 | 2618 ft | 243 kts | 256° |
| 2026-05-04 15:48 | 47.83332 | -122.36407 | 3543 ft | 268 kts | 229° |
| 2026-05-04 15:49 | 47.81939 | -122.38245 | 4222 ft | 271 kts | 217° |
| 2026-05-04 15:49 | 47.80370 | -122.39829 | 4952 ft | 273 kts | 214° |
| 2026-05-04 15:49 | 47.78770 | -122.41357 | 5572 ft | 278 kts | 214° |
| 2026-05-04 15:49 | 47.77134 | -122.42909 | 6253 ft | 281 kts | 214° |
| 2026-05-04 15:50 | 47.75491 | -122.44470 | 6896 ft | 284 kts | 214° |
| 2026-05-04 15:50 | 47.73831 | -122.46046 | 7520 ft | 287 kts | 214° |
| 2026-05-04 15:50 | 47.72143 | -122.47649 | 8118 ft | 291 kts | 213° |
| 2026-05-04 15:50 | 47.70435 | -122.49269 | 8759 ft | 293 kts | 213° |
| 2026-05-04 15:51 | 47.68712 | -122.50902 | 9309 ft | 298 kts | 213° |
| 2026-05-04 15:51 | 47.66956 | -122.52565 | 9905 ft | 301 kts | 213° |
| 2026-05-04 15:51 | 47.65220 | -122.54317 | 10351 ft | 310 kts | 219° |
| 2026-05-04 15:51 | 47.63591 | -122.56544 | 10581 ft | 327 kts | 230° |
| 2026-05-04 15:52 | 47.62179 | -122.59282 | 10862 ft | 342 kts | 240° |
| 2026-05-04 15:52 | 47.61089 | -122.62441 | 11141 ft | 357 kts | 251° |
| 2026-05-04 15:52 | 47.60376 | -122.66059 | 11437 ft | 370 kts | 261° |
| 2026-05-04 15:52 | 47.60151 | -122.69887 | 11755 ft | 382 kts | 273° |
| 2026-05-04 15:53 | 47.60466 | -122.73779 | 12263 ft | 386 kts | 285° |
| 2026-05-04 15:53 | 47.61323 | -122.77515 | 12854 ft | 387 kts | 297° |
| 2026-05-04 15:53 | 47.62635 | -122.81014 | 13529 ft | 387 kts | 303° |
| 2026-05-04 15:53 | 47.64011 | -122.84407 | 14141 ft | 391 kts | 303° |
| 2026-05-04 15:54 | 47.65390 | -122.87865 | 14725 ft | 395 kts | 302° |
| 2026-05-04 15:54 | 47.66779 | -122.91403 | 15329 ft | 399 kts | 302° |
| 2026-05-04 15:54 | 47.68165 | -122.94977 | 15940 ft | 402 kts | 302° |
| 2026-05-04 15:54 | 47.69548 | -122.98570 | 16526 ft | 405 kts | 302° |
| 2026-05-04 15:55 | 47.70925 | -123.02171 | 17078 ft | 408 kts | 302° |
| 2026-05-04 15:55 | 47.72338 | -123.05880 | 17628 ft | 412 kts | 302° |
| 2026-05-04 15:55 | 47.73735 | -123.09563 | 18178 ft | 415 kts | 302° |
| 2026-05-04 15:55 | 47.75142 | -123.13281 | 18723 ft | 418 kts | 302° |
| 2026-05-04 15:56 | 47.76573 | -123.17072 | 19299 ft | 420 kts | 302° |
| 2026-05-04 15:56 | 47.77983 | -123.20817 | 19832 ft | 423 kts | 302° |
| 2026-05-04 15:56 | 47.79434 | -123.24676 | 20389 ft | 425 kts | 302° |
| 2026-05-04 15:56 | 47.80872 | -123.28507 | 20894 ft | 428 kts | 302° |
| 2026-05-04 15:57 | 47.82308 | -123.32340 | 21377 ft | 431 kts | 302° |
| 2026-05-04 15:57 | 47.83778 | -123.36270 | 21875 ft | 434 kts | 302° |
| 2026-05-04 15:57 | 47.85241 | -123.40186 | 22341 ft | 437 kts | 302° |
| 2026-05-04 15:57 | 47.86713 | -123.44133 | 22819 ft | 439 kts | 302° |
| 2026-05-04 15:58 | 47.88195 | -123.48115 | 23309 ft | 441 kts | 303° |
| 2026-05-04 15:58 | 47.89670 | -123.52075 | 23783 ft | 442 kts | 303° |
| 2026-05-04 15:58 | 47.91162 | -123.56086 | 24181 ft | 446 kts | 303° |
| 2026-05-04 15:58 | 47.92667 | -123.60136 | 24557 ft | 450 kts | 303° |
| 2026-05-04 15:59 | 47.94187 | -123.64235 | 24931 ft | 453 kts | 303° |
| 2026-05-04 15:59 | 47.95701 | -123.68323 | 25340 ft | 455 kts | 302° |
| 2026-05-04 15:59 | 47.97221 | -123.72437 | 25728 ft | 458 kts | 302° |
| 2026-05-04 15:59 | 47.98771 | -123.76634 | 26083 ft | 461 kts | 302° |
| 2026-05-04 16:00 | 48.00304 | -123.80794 | 26429 ft | 464 kts | 302° |
| 2026-05-04 16:00 | 48.01876 | -123.85068 | 26850 ft | 466 kts | 302° |
| 2026-05-04 16:00 | 48.03419 | -123.89269 | 27231 ft | 468 kts | 302° |
| 2026-05-04 16:00 | 48.04997 | -123.93570 | 27571 ft | 472 kts | 302° |
| 2026-05-04 16:01 | 48.06562 | -123.97842 | 27923 ft | 474 kts | 303° |
| 2026-05-04 16:01 | 48.08136 | -124.02151 | 28278 ft | 477 kts | 302° |
| 2026-05-04 16:01 | 48.09743 | -124.06553 | 28633 ft | 480 kts | 303° |
| 2026-05-04 16:01 | 48.11317 | -124.10873 | 29015 ft | 482 kts | 303° |
| 2026-05-04 16:02 | 48.12919 | -124.15279 | 29449 ft | 482 kts | 303° |
| 2026-05-04 16:02 | 48.14510 | -124.19663 | 30018 ft | 480 kts | 303° |
| 2026-05-04 16:02 | 48.17670 | -124.28393 | 31155 ft | 475 kts | 303° |
| 2026-05-04 16:03 | 48.19227 | -124.32702 | 31610 ft | 474 kts | 303° |
| 2026-05-04 16:03 | 48.20793 | -124.37045 | 31902 ft | 476 kts | 303° |
| 2026-05-04 16:03 | 48.22356 | -124.41380 | 31915 ft | 476 kts | 303° |
| 2026-05-04 16:04 | 48.25471 | -124.50056 | 31920 ft | 473 kts | 303° |
| 2026-05-04 16:04 | 48.30464 | -124.62947 | 31903 ft | 468 kts | 314° |
| 2026-05-04 16:05 | 48.34958 | -124.69840 | 31894 ft | 463 kts | 321° |
| 2026-05-04 16:06 | 48.41969 | -124.79818 | 31893 ft | 461 kts | 321° |
| 2026-05-04 16:07 | 48.51239 | -124.93108 | 31890 ft | 462 kts | 320° |
| 2026-05-04 16:08 | 48.60484 | -125.06448 | 31895 ft | 462 kts | 320° |
| 2026-05-04 16:09 | 48.72016 | -125.23193 | 31887 ft | 460 kts | 320° |
| 2026-05-04 16:10 | 48.81241 | -125.36671 | 31887 ft | 461 kts | 320° |
| 2026-05-04 16:11 | 48.90429 | -125.50166 | 31900 ft | 460 kts | 320° |
| 2026-05-04 16:12 | 49.04190 | -125.70517 | 31888 ft | 461 kts | 319° |
| 2026-05-04 16:13 | 49.13339 | -125.84139 | 31893 ft | 460 kts | 319° |
| 2026-05-04 16:14 | 49.22464 | -125.97799 | 31889 ft | 460 kts | 319° |
| 2026-05-04 16:16 | 49.33811 | -126.14890 | 31878 ft | 460 kts | 319° |
| 2026-05-04 16:17 | 49.45198 | -126.32160 | 31904 ft | 459 kts | 319° |
| 2026-05-04 16:18 | 49.54256 | -126.45985 | 31905 ft | 459 kts | 319° |
| 2026-05-04 16:19 | 49.65549 | -126.63326 | 31903 ft | 459 kts | 319° |
| 2026-05-04 16:20 | 49.76818 | -126.80750 | 31905 ft | 458 kts | 317° |
| 2026-05-04 16:22 | 49.88046 | -126.98235 | 31883 ft | 458 kts | 317° |
| 2026-05-04 16:23 | 50.01442 | -127.19254 | 31877 ft | 458 kts | 317° |
| 2026-05-04 16:25 | 50.14784 | -127.40366 | 31904 ft | 456 kts | 317° |
| 2026-05-04 16:26 | 50.29831 | -127.65955 | 31908 ft | 458 kts | 311° |
| 2026-05-04 16:28 | 50.39838 | -127.85272 | 31886 ft | 457 kts | 311° |
| 2026-05-04 16:29 | 50.53841 | -128.12564 | 31882 ft | 459 kts | 311° |
| 2026-05-04 16:31 | 50.63796 | -128.32144 | 31884 ft | 459 kts | 311° |
| 2026-05-04 16:32 | 50.75692 | -128.55736 | 31888 ft | 460 kts | 310° |
| 2026-05-04 16:33 | 50.83608 | -128.71556 | 31894 ft | 459 kts | 310° |
| 2026-05-04 16:34 | 50.89534 | -128.83462 | 31895 ft | 459 kts | 310° |
| 2026-05-04 16:35 | 51.01320 | -129.07306 | 31919 ft | 459 kts | 309° |
| 2026-05-04 16:36 | 51.07215 | -129.19313 | 31920 ft | 459 kts | 309° |
| 2026-05-04 16:37 | 51.13068 | -129.31291 | 31924 ft | 461 kts | 309° |
| 2026-05-04 16:38 | 51.20874 | -129.47353 | 31918 ft | 460 kts | 309° |
| 2026-05-04 16:39 | 51.30645 | -129.67600 | 31919 ft | 460 kts | 308° |
| 2026-05-04 16:40 | 51.38423 | -129.83830 | 31921 ft | 461 kts | 308° |
| 2026-05-04 16:41 | 51.48124 | -130.04216 | 31927 ft | 462 kts | 308° |
| 2026-05-04 16:43 | 51.57820 | -130.24756 | 31939 ft | 462 kts | 308° |
| 2026-05-04 16:43 | 51.63634 | -130.37149 | 31936 ft | 461 kts | 308° |
| 2026-05-04 16:45 | 51.75204 | -130.61993 | 31940 ft | 463 kts | 307° |
| 2026-05-04 16:46 | 51.84812 | -130.82809 | 31947 ft | 463 kts | 307° |
| 2026-05-04 16:47 | 51.92504 | -130.99596 | 31945 ft | 465 kts | 306° |
| 2026-05-04 16:48 | 52.00162 | -131.16417 | 31951 ft | 465 kts | 306° |
| 2026-05-04 16:49 | 52.07795 | -131.33296 | 31951 ft | 464 kts | 306° |
| 2026-05-04 16:50 | 52.15385 | -131.50189 | 31965 ft | 466 kts | 306° |
| 2026-05-04 16:51 | 52.21077 | -131.62929 | 31972 ft | 466 kts | 306° |
| 2026-05-04 16:52 | 52.28667 | -131.80020 | 31974 ft | 466 kts | 304° |
| 2026-05-04 16:53 | 52.34359 | -131.92911 | 31973 ft | 467 kts | 304° |
| 2026-05-04 16:54 | 52.41931 | -132.10162 | 31982 ft | 467 kts | 304° |
| 2026-05-04 16:55 | 52.53209 | -132.36075 | 31985 ft | 467 kts | 304° |
| 2026-05-04 16:56 | 52.62585 | -132.57819 | 31980 ft | 468 kts | 304° |
| 2026-05-04 16:57 | 52.68218 | -132.70970 | 31985 ft | 469 kts | 303° |
| 2026-05-04 16:58 | 52.75670 | -132.88475 | 31987 ft | 469 kts | 303° |
| 2026-05-04 17:00 | 52.86858 | -133.14989 | 32010 ft | 471 kts | 303° |
| 2026-05-04 17:01 | 52.96139 | -133.37190 | 32014 ft | 470 kts | 303° |
| 2026-05-04 17:02 | 53.03561 | -133.55089 | 32020 ft | 471 kts | 303° |
| 2026-05-04 17:03 | 53.09122 | -133.68581 | 32027 ft | 471 kts | 302° |
| 2026-05-04 17:03 | 53.14630 | -133.82019 | 32029 ft | 472 kts | 302° |
| 2026-05-04 17:04 | 53.21995 | -134.00096 | 32031 ft | 473 kts | 301° |
| 2026-05-04 17:05 | 53.29345 | -134.18266 | 32039 ft | 473 kts | 301° |
| 2026-05-04 17:06 | 53.34826 | -134.31902 | 32043 ft | 473 kts | 301° |
| 2026-05-04 17:07 | 53.39697 | -134.44084 | 32046 ft | 474 kts | 301° |
| 2026-05-04 17:07 | 53.43967 | -134.54810 | 32056 ft | 475 kts | 301° |
| 2026-05-04 17:08 | 53.49432 | -134.68605 | 32060 ft | 475 kts | 300° |
| 2026-05-04 17:09 | 53.53055 | -134.77791 | 32064 ft | 474 kts | 300° |
| 2026-05-04 17:09 | 53.56681 | -134.87021 | 32065 ft | 474 kts | 300° |
| 2026-05-04 17:10 | 53.65718 | -135.10173 | 32071 ft | 476 kts | 300° |
| 2026-05-04 17:11 | 53.69350 | -135.19536 | 32069 ft | 476 kts | 300° |
| 2026-05-04 17:12 | 53.74787 | -135.33620 | 32065 ft | 476 kts | 300° |
| 2026-05-04 17:13 | 53.83740 | -135.56982 | 32071 ft | 476 kts | 300° |
| 2026-05-04 17:14 | 53.90893 | -135.75812 | 32073 ft | 477 kts | 299° |
| 2026-05-04 17:15 | 53.96239 | -135.89973 | 32071 ft | 477 kts | 299° |
| 2026-05-04 17:16 | 54.02959 | -136.09235 | 32075 ft | 476 kts | 295° |
| 2026-05-04 17:17 | 54.09320 | -136.28960 | 32083 ft | 475 kts | 295° |
| 2026-05-04 17:18 | 54.15607 | -136.48669 | 32078 ft | 476 kts | 295° |
| 2026-05-04 17:19 | 54.21893 | -136.68552 | 32083 ft | 477 kts | 294° |
| 2026-05-04 17:20 | 54.28150 | -136.88506 | 32086 ft | 476 kts | 294° |
| 2026-05-04 17:20 | 54.32818 | -137.03505 | 32088 ft | 477 kts | 293° |
| 2026-05-04 17:21 | 54.39006 | -137.23534 | 32089 ft | 478 kts | 293° |
| 2026-05-04 17:22 | 54.42108 | -137.33638 | 32088 ft | 478 kts | 293° |
| 2026-05-04 17:23 | 54.48268 | -137.53830 | 32088 ft | 479 kts | 293° |
| 2026-05-04 17:24 | 54.52869 | -137.69026 | 32092 ft | 480 kts | 292° |
| 2026-05-04 17:25 | 54.58979 | -137.89354 | 32092 ft | 480 kts | 292° |
| 2026-05-04 17:26 | 54.65058 | -138.09750 | 32091 ft | 479 kts | 292° |
| 2026-05-04 17:27 | 54.72627 | -138.35403 | 32093 ft | 481 kts | 291° |
| 2026-05-04 17:28 | 54.78652 | -138.56024 | 32092 ft | 482 kts | 291° |
| 2026-05-04 17:29 | 54.87624 | -138.87068 | 32099 ft | 482 kts | 290° |
| 2026-05-04 17:31 | 54.95071 | -139.13158 | 32094 ft | 486 kts | 290° |
| 2026-05-04 17:32 | 55.02487 | -139.39427 | 32097 ft | 487 kts | 290° |
| 2026-05-04 17:33 | 55.08385 | -139.60533 | 32099 ft | 488 kts | 290° |
| 2026-05-04 17:34 | 55.14253 | -139.81731 | 32085 ft | 489 kts | 289° |
| 2026-05-04 17:35 | 55.21574 | -140.08446 | 32086 ft | 489 kts | 288° |
| 2026-05-04 17:36 | 55.24483 | -140.19156 | 32076 ft | 492 kts | 288° |
| 2026-05-04 17:36 | 55.27404 | -140.29948 | 32070 ft | 488 kts | 288° |
| 2026-05-04 17:37 | 55.30295 | -140.40692 | 32069 ft | 492 kts | 288° |
| 2026-05-04 17:37 | 55.33207 | -140.51558 | 32071 ft | 493 kts | 288° |
| 2026-05-04 17:38 | 55.36097 | -140.62396 | 32069 ft | 492 kts | 288° |
| 2026-05-04 17:38 | 55.38990 | -140.73294 | 32069 ft | 491 kts | 287° |
| 2026-05-04 17:39 | 55.43311 | -140.89682 | 32070 ft | 494 kts | 287° |
| 2026-05-04 17:39 | 55.46171 | -141.00584 | 32072 ft | 494 kts | 287° |
| 2026-05-04 17:40 | 55.49046 | -141.11609 | 32067 ft | 496 kts | 287° |
| 2026-05-04 17:40 | 55.51897 | -141.22583 | 32062 ft | 494 kts | 287° |
| 2026-05-04 17:41 | 55.54744 | -141.33606 | 32060 ft | 496 kts | 287° |
| 2026-05-04 17:41 | 55.57593 | -141.44685 | 32057 ft | 497 kts | 287° |
| 2026-05-04 17:42 | 55.60428 | -141.55769 | 32056 ft | 499 kts | 287° |
| 2026-05-04 17:42 | 55.63268 | -141.66922 | 32056 ft | 496 kts | 285° |
| 2026-05-04 17:43 | 55.66095 | -141.78087 | 32057 ft | 498 kts | 285° |
| 2026-05-04 17:43 | 55.68892 | -141.89177 | 32053 ft | 496 kts | 285° |
| 2026-05-04 17:44 | 55.71702 | -142.00394 | 32056 ft | 498 kts | 285° |
| 2026-05-04 17:44 | 55.74485 | -142.11545 | 32054 ft | 500 kts | 285° |
| 2026-05-04 17:45 | 55.77289 | -142.22847 | 32047 ft | 500 kts | 285° |
| 2026-05-04 17:45 | 55.80069 | -142.34097 | 32043 ft | 498 kts | 285° |
| 2026-05-04 17:46 | 55.82868 | -142.45499 | 32041 ft | 502 kts | 285° |
| 2026-05-04 17:46 | 55.85631 | -142.56801 | 32040 ft | 502 kts | 285° |
| 2026-05-04 17:47 | 55.88406 | -142.68216 | 32029 ft | 502 kts | 284° |
| 2026-05-04 17:47 | 55.91153 | -142.79568 | 32031 ft | 502 kts | 284° |
| 2026-05-04 17:48 | 55.93907 | -142.91022 | 32025 ft | 503 kts | 284° |
| 2026-05-04 17:48 | 55.96650 | -143.02477 | 32024 ft | 503 kts | 284° |
| 2026-05-04 17:49 | 55.99397 | -143.14020 | 32018 ft | 504 kts | 284° |
| 2026-05-04 17:49 | 56.02114 | -143.25496 | 32017 ft | 504 kts | 284° |
| 2026-05-04 17:50 | 56.04817 | -143.36971 | 32016 ft | 506 kts | 284° |
| 2026-05-04 17:50 | 56.07535 | -143.48572 | 32013 ft | 506 kts | 284° |
| 2026-05-04 17:51 | 56.10241 | -143.60187 | 32008 ft | 505 kts | 284° |
| 2026-05-04 17:51 | 56.12925 | -143.71767 | 31987 ft | 508 kts | 283° |
| 2026-05-04 17:52 | 56.15630 | -143.83504 | 31986 ft | 507 kts | 283° |
| 2026-05-04 17:52 | 56.18293 | -143.95126 | 31982 ft | 509 kts | 283° |
| 2026-05-04 17:53 | 56.20962 | -144.06834 | 31979 ft | 510 kts | 283° |
| 2026-05-04 17:53 | 56.23631 | -144.18605 | 31983 ft | 508 kts | 283° |
| 2026-05-04 17:54 | 56.26285 | -144.30389 | 31974 ft | 511 kts | 283° |
| 2026-05-04 17:54 | 56.28943 | -144.42244 | 31975 ft | 508 kts | 283° |
| 2026-05-04 17:55 | 56.31578 | -144.54077 | 31974 ft | 513 kts | 283° |
| 2026-05-04 17:55 | 56.34227 | -144.66029 | 31968 ft | 514 kts | 282° |
| 2026-05-04 17:56 | 56.36861 | -144.77989 | 31959 ft | 516 kts | 282° |
| 2026-05-04 17:56 | 56.39482 | -144.89947 | 31956 ft | 513 kts | 282° |
| 2026-05-04 17:57 | 56.42082 | -145.01886 | 31949 ft | 514 kts | 282° |
| 2026-05-04 17:57 | 56.44685 | -145.13916 | 31944 ft | 518 kts | 282° |
| 2026-05-04 17:58 | 56.47280 | -145.25960 | 31943 ft | 513 kts | 282° |
| 2026-05-04 17:58 | 56.49868 | -145.38072 | 31933 ft | 520 kts | 282° |
| 2026-05-04 17:59 | 56.52438 | -145.50146 | 31931 ft | 514 kts | 282° |
| 2026-05-04 18:00 | 56.56294 | -145.68425 | 31921 ft | 521 kts | 281° |
| 2026-05-04 18:00 | 56.58844 | -145.80583 | 31918 ft | 519 kts | 281° |
| 2026-05-04 18:01 | 56.61386 | -145.92789 | 31920 ft | 522 kts | 281° |
| 2026-05-04 18:01 | 56.63932 | -146.05083 | 31917 ft | 519 kts | 281° |
| 2026-05-04 18:02 | 56.67725 | -146.23549 | 31904 ft | 523 kts | 281° |
| 2026-05-04 18:02 | 56.70256 | -146.35967 | 31902 ft | 527 kts | 281° |
| 2026-05-04 18:03 | 56.72778 | -146.48401 | 31900 ft | 522 kts | 281° |
| 2026-05-04 18:03 | 56.75282 | -146.60847 | 31905 ft | 527 kts | 281° |
| 2026-05-04 18:04 | 56.77776 | -146.73296 | 31898 ft | 521 kts | 280° |
| 2026-05-04 18:05 | 56.81485 | -146.91998 | 31885 ft | 527 kts | 280° |
| 2026-05-04 18:05 | 56.83956 | -147.04538 | 31893 ft | 529 kts | 280° |
| 2026-05-04 18:06 | 56.87651 | -147.23457 | 31885 ft | 531 kts | 280° |
| 2026-05-04 18:06 | 56.90096 | -147.36070 | 31880 ft | 531 kts | 280° |
| 2026-05-04 18:07 | 56.92559 | -147.48872 | 31875 ft | 535 kts | 280° |
| 2026-05-04 18:07 | 56.95014 | -147.61710 | 31871 ft | 535 kts | 281° |
| 2026-05-04 18:08 | 56.97443 | -147.74480 | 31848 ft | 532 kts | 279° |
| 2026-05-04 18:08 | 56.99862 | -147.87302 | 31847 ft | 535 kts | 279° |
| 2026-05-04 18:09 | 57.04672 | -148.13063 | 31832 ft | 538 kts | 279° |
| 2026-05-04 18:10 | 57.07062 | -148.25980 | 31832 ft | 537 kts | 279° |
| 2026-05-04 18:10 | 57.09447 | -148.38972 | 31832 ft | 539 kts | 279° |
| 2026-05-04 18:11 | 57.11812 | -148.51936 | 31799 ft | 539 kts | 280° |
| 2026-05-04 18:11 | 57.14199 | -148.65124 | 31802 ft | 538 kts | 279° |
| 2026-05-04 18:12 | 57.16518 | -148.78012 | 31795 ft | 538 kts | 279° |
| 2026-05-04 18:12 | 57.18854 | -148.91107 | 31789 ft | 539 kts | 279° |
| 2026-05-04 18:13 | 57.21184 | -149.04259 | 31786 ft | 543 kts | 279° |
| 2026-05-04 18:14 | 57.24653 | -149.24004 | 31787 ft | 544 kts | 279° |
| 2026-05-04 18:14 | 57.26962 | -149.37264 | 31786 ft | 540 kts | 279° |
| 2026-05-04 18:15 | 57.31529 | -149.63782 | 31779 ft | 542 kts | 279° |
| 2026-05-04 18:16 | 57.33779 | -149.76996 | 31756 ft | 541 kts | 278° |
| 2026-05-04 18:16 | 57.36027 | -149.90309 | 31755 ft | 547 kts | 278° |
| 2026-05-04 18:17 | 57.39377 | -150.10303 | 31747 ft | 543 kts | 278° |
| 2026-05-04 18:18 | 57.42711 | -150.30441 | 31741 ft | 542 kts | 279° |
| 2026-05-04 18:18 | 57.44909 | -150.43858 | 31737 ft | 547 kts | 279° |
| 2026-05-04 18:19 | 57.47461 | -150.64267 | 31745 ft | 540 kts | 271° |
| 2026-05-04 18:19 | 57.48753 | -150.77966 | 31731 ft | 535 kts | 270° |
| 2026-05-04 18:20 | 57.50011 | -150.91542 | 31730 ft | 539 kts | 271° |
| 2026-05-04 18:20 | 57.51265 | -151.05220 | 31729 ft | 534 kts | 271° |
| 2026-05-04 18:21 | 57.52503 | -151.18953 | 31731 ft | 542 kts | 270° |
| 2026-05-04 18:21 | 57.53729 | -151.32675 | 31724 ft | 537 kts | 270° |
| 2026-05-04 18:22 | 57.54932 | -151.46347 | 31733 ft | 538 kts | 271° |
| 2026-05-04 18:22 | 57.56121 | -151.60036 | 31719 ft | 541 kts | 271° |
| 2026-05-04 18:23 | 57.57302 | -151.73795 | 31707 ft | 539 kts | 270° |
| 2026-05-04 18:23 | 57.58472 | -151.87659 | 31715 ft | 544 kts | 270° |
| 2026-05-04 18:24 | 57.59623 | -152.01390 | 31712 ft | 537 kts | 270° |
| 2026-05-04 18:24 | 57.60753 | -152.15150 | 31718 ft | 541 kts | 270° |
| 2026-05-04 18:25 | 57.61875 | -152.28981 | 31723 ft | 541 kts | 270° |
| 2026-05-04 18:25 | 57.62982 | -152.42793 | 31712 ft | 538 kts | 271° |
| 2026-05-04 18:26 | 57.64074 | -152.56682 | 31723 ft | 546 kts | 271° |
| 2026-05-04 18:26 | 57.65157 | -152.70557 | 31686 ft | 539 kts | 270° |
| 2026-05-04 18:27 | 57.66216 | -152.84383 | 31714 ft | 539 kts | 271° |
| 2026-05-04 18:27 | 57.67273 | -152.98421 | 31696 ft | 544 kts | 270° |
| 2026-05-04 18:28 | 57.68305 | -153.12288 | 31612 ft | 540 kts | 271° |
| 2026-05-04 18:28 | 57.69326 | -153.26250 | 31696 ft | 543 kts | 270° |
| 2026-05-04 18:29 | 57.70329 | -153.40147 | 31721 ft | 540 kts | 271° |
| 2026-05-04 18:29 | 57.71309 | -153.53989 | 31639 ft | 541 kts | 272° |
| 2026-05-04 18:30 | 57.72760 | -153.74852 | 31698 ft | 539 kts | 271° |
| 2026-05-04 18:31 | 57.73704 | -153.88715 | 31662 ft | 537 kts | 270° |
| 2026-05-04 18:31 | 57.74621 | -154.02402 | 31678 ft | 533 kts | 271° |
| 2026-05-04 18:32 | 57.75531 | -154.16237 | 31638 ft | 537 kts | 271° |
| 2026-05-04 18:32 | 57.76424 | -154.30034 | 31637 ft | 536 kts | 271° |
| 2026-05-04 18:33 | 57.77302 | -154.43834 | 31671 ft | 536 kts | 272° |
| 2026-05-04 18:33 | 57.78169 | -154.57713 | 31642 ft | 535 kts | 272° |
| 2026-05-04 18:34 | 57.79011 | -154.71426 | 31646 ft | 533 kts | 271° |
| 2026-05-04 18:34 | 57.79836 | -154.85101 | 31625 ft | 529 kts | 271° |
| 2026-05-04 18:35 | 57.80649 | -154.98860 | 31647 ft | 531 kts | 271° |
| 2026-05-04 18:35 | 57.81446 | -155.12607 | 31657 ft | 533 kts | 271° |
| 2026-05-04 18:36 | 57.82230 | -155.26343 | 31653 ft | 526 kts | 271° |
| 2026-05-04 18:36 | 57.82991 | -155.39996 | 31638 ft | 530 kts | 272° |
| 2026-05-04 18:37 | 57.83738 | -155.53641 | 31645 ft | 527 kts | 272° |
| 2026-05-04 18:37 | 57.84475 | -155.67357 | 31625 ft | 527 kts | 271° |
| 2026-05-04 18:38 | 57.85190 | -155.80960 | 31627 ft | 524 kts | 271° |
| 2026-05-04 18:38 | 57.85892 | -155.94617 | 31621 ft | 527 kts | 272° |
| 2026-05-04 18:39 | 57.86575 | -156.08160 | 31631 ft | 521 kts | 272° |
| 2026-05-04 18:39 | 57.87241 | -156.21693 | 31633 ft | 524 kts | 272° |
| 2026-05-04 18:40 | 57.87896 | -156.35278 | 31635 ft | 521 kts | 272° |
| 2026-05-04 18:40 | 57.88537 | -156.48883 | 31665 ft | 522 kts | 273° |
| 2026-05-04 18:41 | 57.89162 | -156.62462 | 31651 ft | 522 kts | 272° |
| 2026-05-04 18:41 | 57.89775 | -156.76099 | 31657 ft | 519 kts | 272° |
| 2026-05-04 18:42 | 57.90369 | -156.89639 | 31669 ft | 519 kts | 272° |
| 2026-05-04 18:42 | 57.90945 | -157.03095 | 31625 ft | 519 kts | 272° |
| 2026-05-04 18:43 | 57.91508 | -157.16597 | 31658 ft | 517 kts | 272° |
| 2026-05-04 18:43 | 57.92057 | -157.30086 | 31651 ft | 518 kts | 272° |
| 2026-05-04 18:44 | 57.92591 | -157.43579 | 31644 ft | 518 kts | 273° |
| 2026-05-04 18:44 | 57.93111 | -157.57082 | 31666 ft | 517 kts | 272° |
| 2026-05-04 18:45 | 57.93612 | -157.70460 | 31663 ft | 515 kts | 272° |
| 2026-05-04 18:45 | 57.94098 | -157.83838 | 31654 ft | 515 kts | 272° |
| 2026-05-04 18:46 | 57.94573 | -157.97275 | 31663 ft | 514 kts | 272° |
| 2026-05-04 18:46 | 57.95029 | -158.10614 | 31659 ft | 513 kts | 272° |
| 2026-05-04 18:47 | 57.95475 | -158.24028 | 31672 ft | 512 kts | 272° |
| 2026-05-04 18:47 | 57.95903 | -158.37332 | 31676 ft | 512 kts | 272° |
| 2026-05-04 18:48 | 57.96317 | -158.50665 | 31675 ft | 511 kts | 272° |
| 2026-05-04 18:48 | 57.96718 | -158.64017 | 31686 ft | 510 kts | 273° |
| 2026-05-04 18:49 | 57.97103 | -158.77289 | 31694 ft | 507 kts | 272° |
| 2026-05-04 18:49 | 57.97474 | -158.90569 | 31692 ft | 509 kts | 272° |
| 2026-05-04 18:50 | 57.97829 | -159.03804 | 31698 ft | 507 kts | 272° |
| 2026-05-04 18:50 | 57.98171 | -159.17012 | 31705 ft | 505 kts | 272° |
| 2026-05-04 18:51 | 57.98499 | -159.30215 | 31707 ft | 505 kts | 272° |
| 2026-05-04 18:51 | 57.98810 | -159.43332 | 31722 ft | 505 kts | 272° |
| 2026-05-04 18:52 | 57.99111 | -159.56558 | 31726 ft | 503 kts | 272° |
| 2026-05-04 18:52 | 57.99397 | -159.69743 | 31723 ft | 503 kts | 271° |
| 2026-05-04 18:53 | 57.99667 | -159.82794 | 31731 ft | 502 kts | 271° |
| 2026-05-04 18:53 | 57.99911 | -159.95869 | 31737 ft | 501 kts | 269° |
| 2026-05-04 18:54 | 57.99541 | -160.09045 | 31927 ft | 507 kts | 265° |
| 2026-05-04 18:54 | 57.99292 | -160.15591 | 32470 ft | 502 kts | 265° |
| 2026-05-04 18:54 | 57.99034 | -160.22110 | 33034 ft | 495 kts | 264° |
| 2026-05-04 18:54 | 57.98777 | -160.28445 | 33459 ft | 492 kts | 264° |
| 2026-05-04 18:55 | 57.98508 | -160.34894 | 33705 ft | 493 kts | 264° |
| 2026-05-04 18:55 | 57.97670 | -160.54201 | 33755 ft | 493 kts | 264° |
| 2026-05-04 18:56 | 57.97092 | -160.66998 | 33754 ft | 491 kts | 263° |
| 2026-05-04 18:56 | 57.96499 | -160.79800 | 33751 ft | 492 kts | 263° |
| 2026-05-04 18:57 | 57.95893 | -160.92572 | 33760 ft | 491 kts | 263° |
| 2026-05-04 18:57 | 57.95274 | -161.05348 | 33761 ft | 491 kts | 263° |
| 2026-05-04 18:58 | 57.94643 | -161.18074 | 33781 ft | 490 kts | 263° |
| 2026-05-04 18:58 | 57.94000 | -161.30800 | 33785 ft | 490 kts | 263° |
| 2026-05-04 18:59 | 57.93341 | -161.43556 | 33781 ft | 489 kts | 263° |
| 2026-05-04 18:59 | 57.92675 | -161.56210 | 33795 ft | 489 kts | 263° |
| 2026-05-04 19:00 | 57.91993 | -161.68939 | 33795 ft | 489 kts | 262° |
| 2026-05-04 19:00 | 57.91301 | -161.81596 | 33811 ft | 487 kts | 262° |
| 2026-05-04 19:01 | 57.90595 | -161.94270 | 33819 ft | 486 kts | 263° |
| 2026-05-04 19:01 | 57.89886 | -162.06779 | 33822 ft | 487 kts | 262° |
| 2026-05-04 19:02 | 57.89157 | -162.19405 | 33808 ft | 487 kts | 262° |
| 2026-05-04 19:02 | 57.88418 | -162.31993 | 33811 ft | 486 kts | 262° |
| 2026-05-04 19:03 | 57.87666 | -162.44591 | 33813 ft | 485 kts | 262° |
| 2026-05-04 19:03 | 57.86901 | -162.57173 | 33819 ft | 486 kts | 262° |
| 2026-05-04 19:04 | 57.86130 | -162.69667 | 33823 ft | 485 kts | 261° |
| 2026-05-04 19:04 | 57.85340 | -162.82253 | 33838 ft | 485 kts | 261° |
| 2026-05-04 19:05 | 57.84542 | -162.94762 | 33843 ft | 484 kts | 261° |
| 2026-05-04 19:05 | 57.83734 | -163.07230 | 33846 ft | 484 kts | 261° |
| 2026-05-04 19:06 | 57.82914 | -163.19691 | 33854 ft | 484 kts | 261° |
| 2026-05-04 19:06 | 57.82077 | -163.32216 | 33861 ft | 484 kts | 261° |
| 2026-05-04 19:07 | 57.81233 | -163.44669 | 33867 ft | 484 kts | 261° |
| 2026-05-04 19:07 | 57.80377 | -163.57092 | 33871 ft | 483 kts | 261° |
| 2026-05-04 19:08 | 57.79501 | -163.69638 | 33877 ft | 483 kts | 260° |
| 2026-05-04 19:08 | 57.78620 | -163.82063 | 33879 ft | 482 kts | 261° |
| 2026-05-04 19:09 | 57.77733 | -163.94408 | 33882 ft | 482 kts | 261° |
| 2026-05-04 19:09 | 57.76832 | -164.06770 | 33896 ft | 481 kts | 261° |
| 2026-05-04 19:10 | 57.75917 | -164.19141 | 33896 ft | 481 kts | 261° |
| 2026-05-04 19:10 | 57.74985 | -164.31578 | 33908 ft | 482 kts | 261° |
| 2026-05-04 19:11 | 57.74048 | -164.43929 | 33922 ft | 481 kts | 261° |
| 2026-05-04 19:11 | 57.73102 | -164.56221 | 33932 ft | 480 kts | 261° |
| 2026-05-04 19:12 | 57.71658 | -164.74692 | 33942 ft | 480 kts | 260° |
| 2026-05-04 19:13 | 57.70675 | -164.87054 | 33945 ft | 480 kts | 260° |
| 2026-05-04 19:13 | 57.69686 | -164.99338 | 33933 ft | 481 kts | 260° |
| 2026-05-04 19:14 | 57.68682 | -165.11655 | 33932 ft | 481 kts | 260° |
| 2026-05-04 19:14 | 57.67673 | -165.23892 | 33961 ft | 481 kts | 260° |
| 2026-05-04 19:15 | 57.66640 | -165.36250 | 33965 ft | 481 kts | 260° |
| 2026-05-04 19:15 | 57.65604 | -165.48503 | 33964 ft | 481 kts | 260° |
| 2026-05-04 19:16 | 57.64552 | -165.60800 | 33969 ft | 482 kts | 261° |
| 2026-05-04 19:16 | 57.63490 | -165.73064 | 33978 ft | 481 kts | 259° |
| 2026-05-04 19:17 | 57.62412 | -165.85376 | 33981 ft | 482 kts | 260° |
| 2026-05-04 19:17 | 57.61321 | -165.97682 | 33969 ft | 482 kts | 260° |
| 2026-05-04 19:18 | 57.60222 | -166.09932 | 33978 ft | 482 kts | 260° |
| 2026-05-04 19:18 | 57.59115 | -166.22147 | 33987 ft | 483 kts | 260° |
| 2026-05-04 19:19 | 57.57988 | -166.34436 | 33987 ft | 483 kts | 260° |
| 2026-05-04 19:19 | 57.56844 | -166.46774 | 33989 ft | 485 kts | 261° |
| 2026-05-04 19:20 | 57.55682 | -166.59158 | 33996 ft | 485 kts | 261° |
| 2026-05-04 19:20 | 57.54517 | -166.71454 | 33991 ft | 484 kts | 260° |
| 2026-05-04 19:21 | 57.53336 | -166.83778 | 33994 ft | 483 kts | 260° |
| 2026-05-04 19:21 | 57.52152 | -166.95995 | 34018 ft | 483 kts | 260° |
| 2026-05-04 19:22 | 57.50946 | -167.08315 | 34016 ft | 484 kts | 260° |
| 2026-05-04 19:22 | 57.49728 | -167.20627 | 34030 ft | 484 kts | 260° |
| 2026-05-04 19:23 | 57.48502 | -167.32887 | 34030 ft | 484 kts | 260° |
| 2026-05-04 19:23 | 57.47272 | -167.45067 | 34032 ft | 484 kts | 261° |
| 2026-05-04 19:24 | 57.46012 | -167.57413 | 34042 ft | 485 kts | 261° |
| 2026-05-04 19:24 | 57.44754 | -167.69617 | 34040 ft | 484 kts | 260° |
| 2026-05-04 19:25 | 57.43476 | -167.81889 | 34044 ft | 485 kts | 260° |
| 2026-05-04 19:25 | 57.42193 | -167.94087 | 34052 ft | 485 kts | 260° |
| 2026-05-04 19:26 | 57.40889 | -168.06358 | 34058 ft | 485 kts | 260° |
| 2026-05-04 19:26 | 57.39585 | -168.18517 | 34062 ft | 485 kts | 260° |
| 2026-05-04 19:27 | 57.38260 | -168.30747 | 34077 ft | 484 kts | 260° |
| 2026-05-04 19:27 | 57.36926 | -168.42946 | 34074 ft | 485 kts | 261° |
| 2026-05-04 19:28 | 57.35571 | -168.55219 | 34078 ft | 485 kts | 261° |
| 2026-05-04 19:28 | 57.34210 | -168.67435 | 34077 ft | 486 kts | 259° |
| 2026-05-04 19:29 | 57.32838 | -168.79627 | 34082 ft | 487 kts | 260° |
| 2026-05-04 19:29 | 57.31457 | -168.91782 | 34069 ft | 486 kts | 260° |
| 2026-05-04 19:30 | 57.30053 | -169.04040 | 34102 ft | 487 kts | 260° |
| 2026-05-04 19:30 | 57.28643 | -169.16223 | 34087 ft | 486 kts | 260° |
| 2026-05-04 19:31 | 57.27219 | -169.28422 | 34098 ft | 485 kts | 260° |
| 2026-05-04 19:31 | 57.25790 | -169.40555 | 34100 ft | 486 kts | 260° |
| 2026-05-04 19:32 | 57.24344 | -169.52724 | 34107 ft | 486 kts | 260° |
| 2026-05-04 19:32 | 57.22877 | -169.64958 | 34115 ft | 486 kts | 261° |
| 2026-05-04 19:33 | 57.21418 | -169.77016 | 34113 ft | 485 kts | 259° |
| 2026-05-04 19:33 | 57.19934 | -169.89183 | 34121 ft | 485 kts | 260° |
| 2026-05-04 19:34 | 57.18440 | -170.01320 | 34122 ft | 485 kts | 260° |
| 2026-05-04 19:34 | 57.16948 | -170.13339 | 34136 ft | 485 kts | 260° |
| 2026-05-04 19:35 | 57.15441 | -170.25423 | 34129 ft | 484 kts | 262° |
| 2026-05-04 19:35 | 57.14724 | -170.37715 | 34142 ft | 481 kts | 269° |
| 2026-05-04 19:36 | 57.14174 | -170.49892 | 34140 ft | 481 kts | 268° |
| 2026-05-04 19:36 | 57.13563 | -170.62103 | 34136 ft | 481 kts | 268° |
| 2026-05-04 19:37 | 57.12912 | -170.74350 | 34136 ft | 483 kts | 267° |
| 2026-05-04 19:37 | 57.12232 | -170.86656 | 34135 ft | 482 kts | 267° |
| 2026-05-04 19:38 | 57.11539 | -170.98834 | 34139 ft | 482 kts | 267° |
| 2026-05-04 19:38 | 57.10827 | -171.11063 | 34137 ft | 482 kts | 267° |
| 2026-05-04 19:39 | 57.10100 | -171.23314 | 34148 ft | 480 kts | 267° |
| 2026-05-04 19:39 | 57.09359 | -171.35568 | 34148 ft | 481 kts | 267° |
| 2026-05-04 19:40 | 57.08615 | -171.47670 | 34149 ft | 480 kts | 267° |
| 2026-05-04 19:40 | 57.07847 | -171.59959 | 34154 ft | 479 kts | 268° |
| 2026-05-04 19:41 | 57.07079 | -171.72055 | 34155 ft | 480 kts | 266° |
| 2026-05-04 19:41 | 57.06295 | -171.84204 | 34168 ft | 477 kts | 267° |
| 2026-05-04 19:42 | 57.05507 | -171.96231 | 34181 ft | 476 kts | 267° |
| 2026-05-04 19:42 | 57.04705 | -172.08284 | 34182 ft | 476 kts | 267° |
| 2026-05-04 19:43 | 57.03897 | -172.20273 | 34193 ft | 476 kts | 267° |
| 2026-05-04 19:43 | 57.03071 | -172.32330 | 34185 ft | 476 kts | 267° |
| 2026-05-04 19:44 | 57.02235 | -172.44362 | 34185 ft | 473 kts | 268° |
| 2026-05-04 19:44 | 57.01393 | -172.56308 | 34190 ft | 473 kts | 268° |
| 2026-05-04 19:45 | 57.00540 | -172.68249 | 34179 ft | 473 kts | 267° |
| 2026-05-04 19:45 | 56.99678 | -172.80159 | 34188 ft | 472 kts | 267° |
| 2026-05-04 19:46 | 56.98808 | -172.91998 | 34181 ft | 470 kts | 267° |
| 2026-05-04 19:46 | 56.97928 | -173.03839 | 34185 ft | 470 kts | 268° |
| 2026-05-04 19:47 | 56.97039 | -173.15637 | 34195 ft | 469 kts | 267° |
| 2026-05-04 19:47 | 56.96131 | -173.27530 | 34189 ft | 470 kts | 267° |
| 2026-05-04 19:48 | 56.95220 | -173.39310 | 34197 ft | 469 kts | 267° |
| 2026-05-04 19:48 | 56.94297 | -173.51106 | 34195 ft | 469 kts | 267° |
| 2026-05-04 19:49 | 56.93366 | -173.62846 | 34198 ft | 468 kts | 268° |
| 2026-05-04 19:49 | 56.92419 | -173.74649 | 34203 ft | 469 kts | 266° |
| 2026-05-04 19:50 | 56.91434 | -173.86417 | 34199 ft | 471 kts | 264° |
| 2026-05-04 19:50 | 56.90051 | -173.98093 | 34201 ft | 472 kts | 263° |
| 2026-05-04 19:51 | 56.88621 | -174.09764 | 34193 ft | 473 kts | 263° |
| 2026-05-04 19:51 | 56.87167 | -174.21518 | 34191 ft | 472 kts | 263° |
| 2026-05-04 19:52 | 56.85717 | -174.33142 | 34190 ft | 471 kts | 262° |
| 2026-05-04 19:52 | 56.84252 | -174.44778 | 34188 ft | 472 kts | 262° |
| 2026-05-04 19:53 | 56.82777 | -174.56401 | 34190 ft | 471 kts | 262° |
| 2026-05-04 19:53 | 56.81294 | -174.67986 | 34189 ft | 472 kts | 262° |
| 2026-05-04 19:54 | 56.79792 | -174.79636 | 34193 ft | 474 kts | 262° |
| 2026-05-04 19:54 | 56.78274 | -174.91303 | 34195 ft | 473 kts | 262° |
| 2026-05-04 19:55 | 56.76751 | -175.02918 | 34194 ft | 474 kts | 262° |
| 2026-05-04 19:55 | 56.75215 | -175.14545 | 34197 ft | 472 kts | 261° |
| 2026-05-04 19:56 | 56.73669 | -175.26155 | 34196 ft | 472 kts | 261° |
| 2026-05-04 19:56 | 56.72118 | -175.37709 | 34198 ft | 472 kts | 261° |
| 2026-05-04 19:57 | 56.70565 | -175.49190 | 34203 ft | 471 kts | 261° |
| 2026-05-04 19:57 | 56.68989 | -175.60762 | 34202 ft | 472 kts | 261° |
| 2026-05-04 19:58 | 56.67397 | -175.72357 | 34204 ft | 473 kts | 260° |
| 2026-05-04 19:58 | 56.65802 | -175.83882 | 34208 ft | 472 kts | 260° |
| 2026-05-04 19:59 | 56.64191 | -175.95439 | 34204 ft | 473 kts | 260° |
| 2026-05-04 19:59 | 56.62571 | -176.06975 | 34210 ft | 473 kts | 260° |
| 2026-05-04 20:00 | 56.60940 | -176.18500 | 34206 ft | 473 kts | 260° |
| 2026-05-04 20:00 | 56.59303 | -176.29985 | 34209 ft | 472 kts | 260° |
| 2026-05-04 20:01 | 56.57654 | -176.41466 | 34216 ft | 471 kts | 260° |
| 2026-05-04 20:01 | 56.55996 | -176.52934 | 34213 ft | 472 kts | 260° |
| 2026-05-04 20:02 | 56.54328 | -176.64383 | 34213 ft | 471 kts | 260° |
| 2026-05-04 20:02 | 56.52650 | -176.75821 | 34214 ft | 472 kts | 259° |
| 2026-05-04 20:03 | 56.50958 | -176.87267 | 34216 ft | 472 kts | 258° |
| 2026-05-04 20:03 | 56.49256 | -176.98708 | 34215 ft | 472 kts | 259° |
| 2026-05-04 20:04 | 56.47548 | -177.10100 | 34214 ft | 471 kts | 258° |
| 2026-05-04 20:04 | 56.45828 | -177.21497 | 34215 ft | 471 kts | 258° |
| 2026-05-04 20:05 | 56.44092 | -177.32921 | 34219 ft | 471 kts | 258° |
| 2026-05-04 20:05 | 56.42359 | -177.44241 | 34217 ft | 472 kts | 258° |
| 2026-05-04 20:06 | 56.40600 | -177.55656 | 34220 ft | 471 kts | 258° |
| 2026-05-04 20:06 | 56.38847 | -177.66960 | 34218 ft | 471 kts | 258° |
| 2026-05-04 20:07 | 56.37077 | -177.78287 | 34222 ft | 471 kts | 258° |
| 2026-05-04 20:07 | 56.35301 | -177.89580 | 34217 ft | 470 kts | 258° |
| 2026-05-04 20:08 | 56.33516 | -178.00859 | 34224 ft | 471 kts | 258° |
| 2026-05-04 20:08 | 56.31712 | -178.12174 | 34225 ft | 470 kts | 258° |
| 2026-05-04 20:09 | 56.29900 | -178.23468 | 34231 ft | 471 kts | 258° |
| 2026-05-04 20:09 | 56.28076 | -178.34766 | 34228 ft | 471 kts | 258° |
| 2026-05-04 20:10 | 56.26249 | -178.46002 | 34228 ft | 470 kts | 258° |
| 2026-05-04 20:10 | 56.24404 | -178.57277 | 34225 ft | 470 kts | 258° |
| 2026-05-04 20:11 | 56.22554 | -178.68510 | 34228 ft | 470 kts | 257° |
| 2026-05-04 20:11 | 56.20691 | -178.79747 | 34238 ft | 470 kts | 257° |
| 2026-05-04 20:12 | 56.18824 | -178.90942 | 34236 ft | 469 kts | 257° |
| 2026-05-04 20:12 | 56.16949 | -179.02106 | 34234 ft | 469 kts | 257° |
| 2026-05-04 20:13 | 56.15058 | -179.13298 | 34243 ft | 470 kts | 257° |
| 2026-05-04 20:13 | 56.13167 | -179.24425 | 34236 ft | 470 kts | 257° |
| 2026-05-04 20:14 | 56.11259 | -179.35573 | 34238 ft | 469 kts | 257° |
| 2026-05-04 20:14 | 56.09343 | -179.46707 | 34238 ft | 469 kts | 257° |
| 2026-05-04 20:15 | 56.07411 | -179.57855 | 34237 ft | 469 kts | 256° |
| 2026-05-04 20:15 | 56.05481 | -179.68930 | 34235 ft | 468 kts | 256° |
| 2026-05-04 20:16 | 56.03540 | -179.79997 | 34243 ft | 468 kts | 256° |
| 2026-05-04 20:16 | 56.01593 | -179.91029 | 34240 ft | 468 kts | 256° |
| 2026-05-04 20:17 | 55.99645 | 179.97952 | 34234 ft | 468 kts | 258° |
| 2026-05-04 20:17 | 55.98477 | 179.86653 | 34238 ft | 464 kts | 265° |
| 2026-05-04 20:18 | 55.97457 | 179.75267 | 34238 ft | 463 kts | 265° |
| 2026-05-04 20:18 | 55.96388 | 179.64009 | 34233 ft | 463 kts | 264° |
| 2026-05-04 20:19 | 55.95280 | 179.52743 | 34235 ft | 462 kts | 264° |
| 2026-05-04 20:19 | 55.94156 | 179.41560 | 34239 ft | 462 kts | 264° |
| 2026-05-04 20:20 | 55.93005 | 179.30275 | 34240 ft | 463 kts | 263° |
| 2026-05-04 20:20 | 55.91843 | 179.19041 | 34237 ft | 462 kts | 263° |
| 2026-05-04 20:21 | 55.90667 | 179.07790 | 34237 ft | 462 kts | 263° |
| 2026-05-04 20:21 | 55.88891 | 178.91010 | 34227 ft | 462 kts | 263° |
| 2026-05-04 20:22 | 55.87687 | 178.79761 | 34226 ft | 462 kts | 263° |
| 2026-05-04 20:22 | 55.86476 | 178.68562 | 34223 ft | 461 kts | 263° |
| 2026-05-04 20:23 | 55.85262 | 178.57434 | 34225 ft | 461 kts | 263° |
| 2026-05-04 20:23 | 55.84035 | 178.46281 | 34232 ft | 462 kts | 263° |
| 2026-05-04 20:24 | 55.82790 | 178.35069 | 34227 ft | 461 kts | 263° |
| 2026-05-04 20:24 | 55.81540 | 178.23908 | 34228 ft | 462 kts | 262° |
| 2026-05-04 20:25 | 55.80283 | 178.12782 | 34229 ft | 462 kts | 262° |
| 2026-05-04 20:25 | 55.79013 | 178.01645 | 34218 ft | 461 kts | 262° |
| 2026-05-04 20:26 | 55.77737 | 177.90546 | 34206 ft | 461 kts | 262° |
| 2026-05-04 20:26 | 55.76442 | 177.79375 | 34220 ft | 461 kts | 262° |
| 2026-05-04 20:27 | 55.75146 | 177.68285 | 34223 ft | 461 kts | 261° |
| 2026-05-04 20:27 | 55.73842 | 177.57216 | 34223 ft | 462 kts | 261° |
| 2026-05-04 20:28 | 55.72521 | 177.46107 | 34220 ft | 462 kts | 261° |
| 2026-05-04 20:28 | 55.71186 | 177.34966 | 34221 ft | 462 kts | 260° |
| 2026-05-04 20:29 | 55.69844 | 177.23863 | 34225 ft | 462 kts | 260° |
| 2026-05-04 20:29 | 55.68492 | 177.12767 | 34226 ft | 462 kts | 260° |
| 2026-05-04 20:30 | 55.67130 | 177.01672 | 34226 ft | 461 kts | 260° |
| 2026-05-04 20:30 | 55.65765 | 176.90643 | 34226 ft | 462 kts | 260° |
| 2026-05-04 20:31 | 55.64378 | 176.79527 | 34222 ft | 462 kts | 260° |
| 2026-05-04 20:31 | 55.62988 | 176.68477 | 34221 ft | 463 kts | 260° |
| 2026-05-04 20:32 | 55.61581 | 176.57375 | 34221 ft | 462 kts | 260° |
| 2026-05-04 20:32 | 55.60169 | 176.46321 | 34223 ft | 463 kts | 260° |
| 2026-05-04 20:33 | 55.58745 | 176.35266 | 34225 ft | 464 kts | 260° |
| 2026-05-04 20:33 | 55.57302 | 176.24141 | 34225 ft | 464 kts | 259° |
| 2026-05-04 20:34 | 55.55851 | 176.13040 | 34225 ft | 465 kts | 259° |
| 2026-05-04 20:34 | 55.54391 | 176.01965 | 34226 ft | 464 kts | 259° |
| 2026-05-04 20:35 | 55.52927 | 175.90935 | 34222 ft | 464 kts | 259° |
| 2026-05-04 20:35 | 55.51445 | 175.79848 | 34219 ft | 465 kts | 259° |
| 2026-05-04 20:36 | 55.49961 | 175.68842 | 34218 ft | 464 kts | 259° |
| 2026-05-04 20:36 | 55.48462 | 175.57796 | 34218 ft | 465 kts | 259° |
| 2026-05-04 20:37 | 55.46951 | 175.46747 | 34212 ft | 465 kts | 259° |
| 2026-05-04 20:37 | 55.45427 | 175.35680 | 34212 ft | 464 kts | 259° |
| 2026-05-04 20:38 | 55.43898 | 175.24663 | 34217 ft | 464 kts | 258° |
| 2026-05-04 20:38 | 55.42367 | 175.13710 | 34211 ft | 465 kts | 258° |
| 2026-05-04 20:39 | 55.40817 | 175.02696 | 34213 ft | 465 kts | 258° |
| 2026-05-04 20:39 | 55.39259 | 174.91707 | 34219 ft | 465 kts | 258° |
| 2026-05-04 20:40 | 55.37683 | 174.80669 | 34209 ft | 465 kts | 258° |
| 2026-05-04 20:40 | 55.36102 | 174.69672 | 34205 ft | 466 kts | 258° |
| 2026-05-04 20:41 | 55.34509 | 174.58679 | 34200 ft | 465 kts | 258° |
| 2026-05-04 20:41 | 55.32908 | 174.47699 | 34206 ft | 464 kts | 258° |
| 2026-05-04 20:42 | 55.31311 | 174.36824 | 34203 ft | 463 kts | 258° |
| 2026-05-04 20:42 | 55.29697 | 174.25908 | 34202 ft | 464 kts | 257° |
| 2026-05-04 20:43 | 55.28069 | 174.14969 | 34200 ft | 464 kts | 257° |
| 2026-05-04 20:43 | 55.26442 | 174.04114 | 34192 ft | 464 kts | 257° |
| 2026-05-04 20:44 | 55.24799 | 173.93222 | 34204 ft | 464 kts | 257° |
| 2026-05-04 20:44 | 55.23142 | 173.82317 | 34194 ft | 463 kts | 257° |
| 2026-05-04 20:45 | 55.21497 | 173.71561 | 34193 ft | 462 kts | 257° |
| 2026-05-04 20:45 | 55.19832 | 173.60738 | 34193 ft | 460 kts | 257° |
| 2026-05-04 20:46 | 55.18151 | 173.49892 | 34187 ft | 461 kts | 257° |
| 2026-05-04 20:46 | 55.16473 | 173.39131 | 34190 ft | 461 kts | 257° |
| 2026-05-04 20:47 | 55.14776 | 173.28323 | 34194 ft | 461 kts | 257° |
| 2026-05-04 20:47 | 55.13079 | 173.17583 | 34190 ft | 461 kts | 257° |
| 2026-05-04 20:48 | 55.11372 | 173.06844 | 34186 ft | 461 kts | 256° |
| 2026-05-04 20:48 | 55.09654 | 172.96107 | 34190 ft | 458 kts | 256° |
| 2026-05-04 20:49 | 55.07938 | 172.85454 | 34190 ft | 457 kts | 257° |
| 2026-05-04 20:49 | 55.06207 | 172.74771 | 34191 ft | 458 kts | 256° |
| 2026-05-04 20:50 | 55.04469 | 172.64108 | 34179 ft | 459 kts | 257° |
| 2026-05-04 20:50 | 55.02718 | 172.53441 | 34176 ft | 458 kts | 257° |
| 2026-05-04 20:51 | 55.00959 | 172.42786 | 34169 ft | 459 kts | 257° |
| 2026-05-04 20:51 | 54.99189 | 172.32127 | 34161 ft | 457 kts | 256° |
| 2026-05-04 20:52 | 54.97422 | 172.21559 | 34160 ft | 456 kts | 256° |
| 2026-05-04 20:52 | 54.95649 | 172.11009 | 34154 ft | 458 kts | 256° |
| 2026-05-04 20:53 | 54.93596 | 172.00606 | 34148 ft | 460 kts | 246° |
| 2026-05-04 20:53 | 54.90051 | 171.91235 | 34387 ft | 470 kts | 235° |
| 2026-05-04 20:54 | 54.88058 | 171.86806 | 34848 ft | 466 kts | 235° |
| 2026-05-04 20:54 | 54.86068 | 171.82443 | 35083 ft | 466 kts | 235° |
| 2026-05-04 20:54 | 54.82040 | 171.73749 | 35136 ft | 461 kts | 234° |
| 2026-05-04 20:55 | 54.77996 | 171.65143 | 35139 ft | 461 kts | 234° |
| 2026-05-04 20:55 | 54.73940 | 171.56593 | 35122 ft | 460 kts | 234° |
| 2026-05-04 20:56 | 54.69877 | 171.48084 | 35123 ft | 460 kts | 234° |
| 2026-05-04 20:56 | 54.65790 | 171.39568 | 35112 ft | 459 kts | 234° |
| 2026-05-04 20:57 | 54.61719 | 171.31120 | 35113 ft | 461 kts | 234° |
| 2026-05-04 20:57 | 54.57627 | 171.22665 | 35111 ft | 459 kts | 234° |
| 2026-05-04 20:58 | 54.53550 | 171.14269 | 35124 ft | 459 kts | 234° |
| 2026-05-04 20:58 | 54.49459 | 171.05875 | 35123 ft | 458 kts | 234° |
| 2026-05-04 20:59 | 54.45376 | 170.97527 | 35109 ft | 457 kts | 234° |
| 2026-05-04 20:59 | 54.41300 | 170.89221 | 35112 ft | 456 kts | 234° |
| 2026-05-04 21:00 | 54.37229 | 170.80954 | 35109 ft | 454 kts | 235° |
| 2026-05-04 21:00 | 54.33157 | 170.72711 | 35101 ft | 454 kts | 235° |
| 2026-05-04 21:01 | 54.29083 | 170.64494 | 35103 ft | 454 kts | 235° |
| 2026-05-04 21:01 | 54.25024 | 170.56335 | 35100 ft | 451 kts | 235° |
| 2026-05-04 21:02 | 54.20952 | 170.48175 | 35097 ft | 450 kts | 236° |
| 2026-05-04 21:02 | 54.16907 | 170.40099 | 35118 ft | 447 kts | 236° |
| 2026-05-04 21:03 | 54.12866 | 170.32053 | 35127 ft | 447 kts | 235° |
| 2026-05-04 21:03 | 54.08843 | 170.24071 | 35112 ft | 444 kts | 235° |
| 2026-05-04 21:04 | 54.04834 | 170.16142 | 35117 ft | 443 kts | 236° |
| 2026-05-04 21:04 | 54.00831 | 170.08252 | 35107 ft | 442 kts | 236° |
| 2026-05-04 21:05 | 53.96812 | 170.00354 | 35119 ft | 439 kts | 236° |
| 2026-05-04 21:05 | 53.92830 | 169.92555 | 35120 ft | 441 kts | 237° |
| 2026-05-04 21:06 | 53.88816 | 169.84718 | 35102 ft | 437 kts | 237° |
| 2026-05-04 21:06 | 53.84861 | 169.77019 | 35097 ft | 439 kts | 237° |
| 2026-05-04 21:07 | 53.80880 | 169.69296 | 35083 ft | 435 kts | 237° |
| 2026-05-04 21:07 | 53.76914 | 169.61624 | 35069 ft | 436 kts | 238° |
| 2026-05-04 21:08 | 53.72944 | 169.53972 | 35081 ft | 431 kts | 238° |
| 2026-05-04 21:08 | 53.69006 | 169.46403 | 35079 ft | 428 kts | 238° |
| 2026-05-04 21:09 | 53.65094 | 169.38905 | 35058 ft | 428 kts | 238° |
| 2026-05-04 21:09 | 53.61574 | 169.31052 | 35054 ft | 413 kts | 249° |
| 2026-05-04 21:10 | 53.58896 | 169.22577 | 35066 ft | 408 kts | 250° |
| 2026-05-04 21:10 | 53.56239 | 169.14157 | 35075 ft | 410 kts | 249° |
| 2026-05-04 21:11 | 53.53573 | 169.05808 | 35056 ft | 405 kts | 250° |
| 2026-05-04 21:11 | 53.50906 | 168.97507 | 35060 ft | 401 kts | 250° |
| 2026-05-04 21:12 | 53.48220 | 168.89185 | 35046 ft | 404 kts | 250° |
| 2026-05-04 21:12 | 53.45562 | 168.80986 | 35033 ft | 402 kts | 250° |
| 2026-05-04 21:13 | 53.42894 | 168.72792 | 35041 ft | 397 kts | 249° |
| 2026-05-04 21:13 | 53.40233 | 168.64638 | 35035 ft | 401 kts | 249° |
| 2026-05-04 21:14 | 53.37574 | 168.56529 | 35027 ft | 399 kts | 250° |
| 2026-05-04 21:14 | 53.34923 | 168.48474 | 35020 ft | 392 kts | 249° |
| 2026-05-04 21:15 | 53.32278 | 168.40453 | 35032 ft | 391 kts | 250° |
| 2026-05-04 21:15 | 53.29627 | 168.32439 | 35033 ft | 397 kts | 249° |
| 2026-05-04 21:16 | 53.26979 | 168.24504 | 35048 ft | 391 kts | 249° |
| 2026-05-04 21:16 | 53.24326 | 168.16562 | 35036 ft | 392 kts | 249° |
| 2026-05-04 21:17 | 53.21677 | 168.08667 | 35030 ft | 390 kts | 248° |
| 2026-05-04 21:17 | 53.19029 | 168.00794 | 35029 ft | 389 kts | 248° |
| 2026-05-04 21:18 | 53.16379 | 167.92947 | 35021 ft | 387 kts | 249° |
| 2026-05-04 21:18 | 53.13736 | 167.85136 | 35024 ft | 391 kts | 248° |
| 2026-05-04 21:19 | 53.11080 | 167.77321 | 35005 ft | 385 kts | 248° |
| 2026-05-04 21:19 | 53.08432 | 167.69545 | 35023 ft | 387 kts | 248° |
| 2026-05-04 21:20 | 53.05790 | 167.61818 | 35018 ft | 384 kts | 249° |
| 2026-05-04 21:20 | 53.03130 | 167.54057 | 35017 ft | 386 kts | 249° |
| 2026-05-04 21:21 | 53.00478 | 167.46350 | 35005 ft | 383 kts | 249° |
| 2026-05-04 21:21 | 52.97825 | 167.38655 | 34999 ft | 385 kts | 248° |
| 2026-05-04 21:22 | 52.95184 | 167.31027 | 35024 ft | 385 kts | 248° |
| 2026-05-04 21:22 | 52.92509 | 167.23323 | 35012 ft | 383 kts | 248° |
| 2026-05-04 21:23 | 52.89880 | 167.15776 | 35014 ft | 379 kts | 248° |
| 2026-05-04 21:23 | 52.87234 | 167.08195 | 35005 ft | 382 kts | 248° |
| 2026-05-04 21:24 | 52.84581 | 167.00624 | 35000 ft | 381 kts | 248° |
| 2026-05-04 21:24 | 52.81924 | 166.93063 | 34998 ft | 378 kts | 247° |
| 2026-05-04 21:25 | 52.79287 | 166.85579 | 35001 ft | 380 kts | 247° |
| 2026-05-04 21:25 | 52.76598 | 166.77969 | 34994 ft | 380 kts | 246° |
| 2026-05-04 21:26 | 52.73947 | 166.70499 | 34993 ft | 380 kts | 247° |
| 2026-05-04 21:26 | 52.71296 | 166.63046 | 34988 ft | 376 kts | 247° |
| 2026-05-04 21:27 | 52.68630 | 166.55571 | 34977 ft | 376 kts | 247° |
| 2026-05-04 21:27 | 52.65973 | 166.48145 | 34970 ft | 375 kts | 246° |
| 2026-05-04 21:28 | 52.63329 | 166.40770 | 34969 ft | 378 kts | 246° |
| 2026-05-04 21:28 | 52.60677 | 166.33411 | 34971 ft | 373 kts | 246° |
| 2026-05-04 21:29 | 52.58034 | 166.26085 | 34971 ft | 372 kts | 245° |
| 2026-05-04 21:29 | 52.55382 | 166.18755 | 34969 ft | 375 kts | 245° |
| 2026-05-04 21:30 | 52.52731 | 166.11456 | 34963 ft | 373 kts | 246° |
| 2026-05-04 21:30 | 52.50078 | 166.04172 | 34958 ft | 371 kts | 245° |
| 2026-05-04 21:31 | 52.46084 | 165.93237 | 34951 ft | 373 kts | 245° |
| 2026-05-04 21:32 | 52.43416 | 165.85965 | 34950 ft | 373 kts | 245° |
| 2026-05-04 21:32 | 52.40759 | 165.78743 | 34940 ft | 369 kts | 245° |
| 2026-05-04 21:33 | 52.38075 | 165.71460 | 34941 ft | 375 kts | 245° |
| 2026-05-04 21:33 | 52.35393 | 165.64217 | 34942 ft | 370 kts | 244° |
| 2026-05-04 21:34 | 52.32722 | 165.57013 | 34938 ft | 372 kts | 244° |
| 2026-05-04 21:34 | 52.30055 | 165.49847 | 34940 ft | 370 kts | 245° |
| 2026-05-04 21:35 | 52.27368 | 165.42644 | 34933 ft | 371 kts | 244° |
| 2026-05-04 21:35 | 52.24696 | 165.35501 | 34927 ft | 370 kts | 244° |
| 2026-05-04 21:36 | 52.22019 | 165.28368 | 34928 ft | 370 kts | 244° |
| 2026-05-04 21:36 | 52.19362 | 165.21307 | 34927 ft | 367 kts | 243° |
| 2026-05-04 21:37 | 52.16684 | 165.14208 | 34920 ft | 369 kts | 244° |
| 2026-05-04 21:37 | 52.14017 | 165.07161 | 34915 ft | 368 kts | 243° |
| 2026-05-04 21:38 | 52.11302 | 165.00003 | 34908 ft | 369 kts | 243° |
| 2026-05-04 21:38 | 52.08611 | 164.92931 | 34898 ft | 369 kts | 243° |
| 2026-05-04 21:39 | 52.05922 | 164.85884 | 34765 ft | 366 kts | 243° |
| 2026-05-04 21:39 | 52.04571 | 164.82352 | 34895 ft | 369 kts | 243° |
| 2026-05-04 21:39 | 52.03199 | 164.78764 | 34891 ft | 369 kts | 242° |
| 2026-05-04 21:40 | 52.00505 | 164.71747 | 34889 ft | 366 kts | 243° |
| 2026-05-04 21:40 | 51.99165 | 164.68259 | 35050 ft | 367 kts | 242° |
| 2026-05-04 21:40 | 51.97810 | 164.64740 | 34882 ft | 368 kts | 242° |
| 2026-05-04 21:41 | 51.95116 | 164.57756 | 34881 ft | 365 kts | 242° |
| 2026-05-04 21:41 | 51.92407 | 164.50754 | 34887 ft | 369 kts | 242° |
| 2026-05-04 21:42 | 51.89689 | 164.43747 | 34870 ft | 365 kts | 242° |
| 2026-05-04 21:42 | 51.86982 | 164.36786 | 34873 ft | 369 kts | 242° |
| 2026-05-04 21:43 | 51.84271 | 164.29835 | 34864 ft | 366 kts | 241° |
| 2026-05-04 21:43 | 51.81547 | 164.22871 | 34868 ft | 367 kts | 242° |
| 2026-05-04 21:44 | 51.78817 | 164.15907 | 34859 ft | 367 kts | 241° |
| 2026-05-04 21:44 | 51.76093 | 164.08981 | 34847 ft | 368 kts | 241° |
| 2026-05-04 21:45 | 51.73356 | 164.02040 | 34849 ft | 367 kts | 240° |
| 2026-05-04 21:45 | 51.70618 | 163.95113 | 34862 ft | 367 kts | 240° |
| 2026-05-04 21:46 | 51.67861 | 163.88158 | 34853 ft | 368 kts | 240° |
| 2026-05-04 21:46 | 51.65119 | 163.81259 | 34845 ft | 368 kts | 240° |
| 2026-05-04 21:47 | 51.62351 | 163.74313 | 34847 ft | 370 kts | 240° |
| 2026-05-04 21:47 | 51.59580 | 163.67381 | 34843 ft | 367 kts | 240° |
| 2026-05-04 21:48 | 51.56829 | 163.60510 | 34838 ft | 369 kts | 240° |
| 2026-05-04 21:48 | 51.54043 | 163.53577 | 34822 ft | 368 kts | 241° |
| 2026-05-04 21:49 | 51.51265 | 163.46680 | 34817 ft | 368 kts | 239° |
| 2026-05-04 21:49 | 51.48488 | 163.39803 | 34817 ft | 369 kts | 240° |
| 2026-05-04 21:50 | 51.45716 | 163.32959 | 34828 ft | 368 kts | 239° |
| 2026-05-04 21:50 | 51.42913 | 163.26053 | 34821 ft | 368 kts | 239° |
| 2026-05-04 21:51 | 51.40145 | 163.19253 | 34828 ft | 368 kts | 239° |
| 2026-05-04 21:51 | 51.37358 | 163.12427 | 34806 ft | 369 kts | 239° |
| 2026-05-04 21:52 | 51.34534 | 163.05522 | 34812 ft | 368 kts | 239° |
| 2026-05-04 21:52 | 51.31724 | 162.98674 | 34802 ft | 369 kts | 238° |
| 2026-05-04 21:53 | 51.28916 | 162.91853 | 34804 ft | 366 kts | 239° |
| 2026-05-04 21:53 | 51.26092 | 162.85004 | 34789 ft | 371 kts | 238° |
| 2026-05-04 21:54 | 51.23269 | 162.78180 | 34791 ft | 366 kts | 238° |
| 2026-05-04 21:54 | 51.20444 | 162.71368 | 34791 ft | 370 kts | 238° |
| 2026-05-04 21:55 | 51.17631 | 162.64601 | 34779 ft | 369 kts | 239° |
| 2026-05-04 21:55 | 51.14796 | 162.57800 | 34753 ft | 368 kts | 238° |
| 2026-05-04 21:56 | 51.11961 | 162.51018 | 34751 ft | 367 kts | 238° |
| 2026-05-04 21:56 | 51.09119 | 162.44234 | 34747 ft | 369 kts | 238° |
| 2026-05-04 21:57 | 51.06303 | 162.37532 | 34740 ft | 367 kts | 238° |
| 2026-05-04 21:57 | 51.03457 | 162.30774 | 34763 ft | 369 kts | 237° |
| 2026-05-04 21:58 | 51.00584 | 162.23973 | 34751 ft | 367 kts | 237° |
| 2026-05-04 21:58 | 50.97751 | 162.17282 | 34755 ft | 367 kts | 237° |
| 2026-05-04 21:59 | 50.94891 | 162.10542 | 34739 ft | 370 kts | 237° |
| 2026-05-04 21:59 | 50.92022 | 162.03803 | 34737 ft | 368 kts | 237° |
| 2026-05-04 22:00 | 50.89159 | 161.97092 | 34741 ft | 368 kts | 236° |
| 2026-05-04 22:00 | 50.86295 | 161.90401 | 34736 ft | 368 kts | 237° |
| 2026-05-04 22:01 | 50.83424 | 161.83704 | 34720 ft | 370 kts | 237° |
| 2026-05-04 22:01 | 50.80556 | 161.77034 | 34716 ft | 368 kts | 236° |
| 2026-05-04 22:02 | 50.77685 | 161.70373 | 34713 ft | 371 kts | 236° |
| 2026-05-04 22:02 | 50.74789 | 161.63673 | 34718 ft | 368 kts | 236° |
| 2026-05-04 22:03 | 50.71896 | 161.56999 | 34691 ft | 369 kts | 236° |
| 2026-05-04 22:03 | 50.69004 | 161.50342 | 34697 ft | 368 kts | 237° |
| 2026-05-04 22:04 | 50.66088 | 161.43645 | 34680 ft | 369 kts | 236° |
| 2026-05-04 22:04 | 50.63172 | 161.36966 | 34680 ft | 372 kts | 236° |
| 2026-05-04 22:05 | 50.60260 | 161.30315 | 34694 ft | 369 kts | 235° |
| 2026-05-04 22:05 | 50.57344 | 161.23671 | 34690 ft | 370 kts | 235° |
| 2026-05-04 22:06 | 50.54424 | 161.17032 | 34665 ft | 369 kts | 236° |
| 2026-05-04 22:06 | 50.51516 | 161.10442 | 34667 ft | 370 kts | 235° |
| 2026-05-04 22:07 | 50.48595 | 161.03836 | 34657 ft | 368 kts | 235° |
| 2026-05-04 22:07 | 50.45635 | 160.97157 | 34655 ft | 370 kts | 234° |
| 2026-05-04 22:08 | 50.42708 | 160.90572 | 34646 ft | 370 kts | 235° |
| 2026-05-04 22:08 | 50.39756 | 160.83946 | 34623 ft | 370 kts | 236° |
| 2026-05-04 22:09 | 50.36811 | 160.77353 | 34612 ft | 370 kts | 234° |
| 2026-05-04 22:09 | 50.33864 | 160.70772 | 34624 ft | 370 kts | 235° |
| 2026-05-04 22:10 | 50.30914 | 160.64203 | 34607 ft | 369 kts | 235° |
| 2026-05-04 22:10 | 50.27951 | 160.57619 | 34590 ft | 370 kts | 235° |
| 2026-05-04 22:11 | 50.24996 | 160.51067 | 34590 ft | 370 kts | 234° |
| 2026-05-04 22:11 | 50.22028 | 160.44507 | 34582 ft | 368 kts | 235° |
| 2026-05-04 22:12 | 50.19089 | 160.38023 | 34573 ft | 367 kts | 234° |
| 2026-05-04 22:12 | 50.16112 | 160.31506 | 34559 ft | 367 kts | 234° |
| 2026-05-04 22:13 | 50.13161 | 160.25064 | 34578 ft | 368 kts | 233° |
| 2026-05-04 22:13 | 50.10180 | 160.18571 | 34558 ft | 366 kts | 233° |
| 2026-05-04 22:14 | 50.07213 | 160.12123 | 34571 ft | 366 kts | 233° |
| 2026-05-04 22:14 | 50.04246 | 160.05692 | 34542 ft | 365 kts | 233° |
| 2026-05-04 22:15 | 50.01279 | 159.99275 | 34529 ft | 368 kts | 233° |
| 2026-05-04 22:15 | 49.98306 | 159.92859 | 34539 ft | 365 kts | 234° |
| 2026-05-04 22:16 | 49.95313 | 159.86418 | 34536 ft | 366 kts | 233° |
| 2026-05-04 22:16 | 49.92326 | 159.80005 | 34521 ft | 366 kts | 233° |
| 2026-05-04 22:17 | 49.89364 | 159.73659 | 34486 ft | 362 kts | 233° |
| 2026-05-04 22:17 | 49.86367 | 159.67259 | 34508 ft | 369 kts | 233° |
| 2026-05-04 22:18 | 49.83385 | 159.60902 | 34487 ft | 363 kts | 232° |
| 2026-05-04 22:18 | 49.80402 | 159.54558 | 34496 ft | 364 kts | 233° |
| 2026-05-04 22:19 | 49.77419 | 159.48230 | 34493 ft | 364 kts | 233° |
| 2026-05-04 22:19 | 49.74451 | 159.41950 | 34473 ft | 365 kts | 233° |
| 2026-05-04 22:20 | 49.71447 | 159.35606 | 34484 ft | 364 kts | 233° |
| 2026-05-04 22:20 | 49.68425 | 159.29370 | 34493 ft | 364 kts | 232° |
| 2026-05-04 22:21 | 49.65402 | 159.23212 | 34462 ft | 360 kts | 231° |
| 2026-05-04 22:21 | 49.62358 | 159.17015 | 34464 ft | 365 kts | 231° |
| 2026-05-04 22:22 | 49.59311 | 159.10822 | 34477 ft | 362 kts | 232° |
| 2026-05-04 22:22 | 49.56260 | 159.04634 | 34449 ft | 364 kts | 232° |
| 2026-05-04 22:23 | 49.53230 | 158.98505 | 34439 ft | 362 kts | 231° |
| 2026-05-04 22:23 | 49.50154 | 158.92294 | 34450 ft | 361 kts | 232° |
| 2026-05-04 22:24 | 49.47111 | 158.86166 | 34430 ft | 362 kts | 231° |
| 2026-05-04 22:24 | 49.44087 | 158.80087 | 34420 ft | 360 kts | 231° |
| 2026-05-04 22:25 | 49.41027 | 158.73953 | 34432 ft | 361 kts | 230° |
| 2026-05-04 22:25 | 49.37964 | 158.67827 | 34395 ft | 360 kts | 232° |
| 2026-05-04 22:26 | 49.34914 | 158.61742 | 34396 ft | 359 kts | 231° |
| 2026-05-04 22:26 | 49.31890 | 158.55719 | 34402 ft | 359 kts | 231° |
| 2026-05-04 22:27 | 49.28835 | 158.49652 | 34387 ft | 360 kts | 232° |
| 2026-05-04 22:27 | 49.25809 | 158.43652 | 34378 ft | 356 kts | 231° |
| 2026-05-04 22:28 | 49.22780 | 158.37662 | 34366 ft | 356 kts | 231° |
| 2026-05-04 22:28 | 49.19762 | 158.31708 | 34376 ft | 355 kts | 231° |
| 2026-05-04 22:29 | 49.16748 | 158.25774 | 34365 ft | 353 kts | 231° |
| 2026-05-04 22:29 | 49.13725 | 158.19835 | 34365 ft | 356 kts | 231° |
| 2026-05-04 22:30 | 49.10716 | 158.13936 | 34349 ft | 352 kts | 231° |
| 2026-05-04 22:30 | 49.07711 | 158.08061 | 34342 ft | 352 kts | 230° |
| 2026-05-04 22:31 | 49.04686 | 158.02156 | 34339 ft | 351 kts | 230° |
| 2026-05-04 22:31 | 49.01692 | 157.96327 | 34330 ft | 352 kts | 230° |
| 2026-05-04 22:32 | 48.98691 | 157.90497 | 34323 ft | 350 kts | 231° |
| 2026-05-04 22:32 | 48.95672 | 157.84644 | 34325 ft | 353 kts | 231° |
| 2026-05-04 22:33 | 48.92657 | 157.78813 | 34313 ft | 351 kts | 231° |
| 2026-05-04 22:33 | 48.89626 | 157.72961 | 34326 ft | 353 kts | 230° |
| 2026-05-04 22:34 | 48.86596 | 157.67127 | 34339 ft | 353 kts | 230° |
| 2026-05-04 22:34 | 48.83561 | 157.61293 | 34335 ft | 352 kts | 230° |
| 2026-05-04 22:35 | 48.80522 | 157.55466 | 34329 ft | 356 kts | 230° |
| 2026-05-04 22:35 | 48.77445 | 157.49577 | 34322 ft | 352 kts | 230° |
| 2026-05-04 22:36 | 48.74400 | 157.43765 | 34320 ft | 354 kts | 231° |
| 2026-05-04 22:36 | 48.71347 | 157.37949 | 34315 ft | 355 kts | 230° |
| 2026-05-04 22:37 | 48.68280 | 157.32118 | 34326 ft | 354 kts | 229° |
| 2026-05-04 22:37 | 48.65187 | 157.26251 | 34324 ft | 357 kts | 229° |
| 2026-05-04 22:38 | 48.62112 | 157.20430 | 34322 ft | 356 kts | 229° |
| 2026-05-04 22:38 | 48.59018 | 157.14587 | 34326 ft | 356 kts | 229° |
| 2026-05-04 22:39 | 48.55953 | 157.08810 | 34319 ft | 356 kts | 229° |
| 2026-05-04 22:39 | 48.52860 | 157.02997 | 34311 ft | 358 kts | 229° |
| 2026-05-04 22:40 | 48.49750 | 156.97162 | 34297 ft | 356 kts | 230° |
| 2026-05-04 22:40 | 48.46628 | 156.91316 | 34295 ft | 357 kts | 230° |
| 2026-05-04 22:41 | 48.43527 | 156.85522 | 34294 ft | 355 kts | 230° |
| 2026-05-04 22:41 | 48.40424 | 156.79736 | 34281 ft | 358 kts | 229° |
| 2026-05-04 22:42 | 48.37275 | 156.73881 | 34284 ft | 360 kts | 230° |
| 2026-05-04 22:42 | 48.34164 | 156.68106 | 34276 ft | 360 kts | 229° |
| 2026-05-04 22:43 | 48.31027 | 156.62297 | 34282 ft | 358 kts | 229° |
| 2026-05-04 22:43 | 48.27866 | 156.56456 | 34272 ft | 359 kts | 229° |
| 2026-05-04 22:44 | 48.24728 | 156.50668 | 34278 ft | 360 kts | 229° |
| 2026-05-04 22:44 | 48.23141 | 156.47748 | 34424 ft | 362 kts | 230° |
| 2026-05-04 22:44 | 48.21549 | 156.44820 | 34274 ft | 362 kts | 230° |
| 2026-05-04 22:45 | 48.18390 | 156.39017 | 34265 ft | 360 kts | 229° |
| 2026-05-04 22:45 | 48.13645 | 156.30330 | 34281 ft | 362 kts | 228° |
| 2026-05-04 22:46 | 48.10466 | 156.24524 | 34271 ft | 361 kts | 228° |
| 2026-05-04 22:46 | 48.07280 | 156.18716 | 34262 ft | 360 kts | 229° |
| 2026-05-04 22:47 | 48.04082 | 156.12903 | 34272 ft | 361 kts | 229° |
| 2026-05-04 22:47 | 48.00883 | 156.07097 | 34278 ft | 360 kts | 228° |
| 2026-05-04 22:48 | 47.97708 | 156.01350 | 34284 ft | 362 kts | 229° |
| 2026-05-04 22:48 | 47.94501 | 155.95557 | 34262 ft | 363 kts | 229° |
| 2026-05-04 22:49 | 47.91286 | 155.89760 | 34267 ft | 360 kts | 229° |
| 2026-05-04 22:49 | 47.88073 | 155.83981 | 34282 ft | 365 kts | 229° |
| 2026-05-04 22:50 | 47.84853 | 155.78200 | 34290 ft | 363 kts | 229° |
| 2026-05-04 22:50 | 47.81652 | 155.72466 | 34288 ft | 362 kts | 228° |
| 2026-05-04 22:51 | 47.78410 | 155.66670 | 34285 ft | 365 kts | 228° |
| 2026-05-04 22:51 | 47.75182 | 155.60912 | 34288 ft | 361 kts | 229° |
| 2026-05-04 22:52 | 47.71988 | 155.55229 | 34297 ft | 365 kts | 229° |
| 2026-05-04 22:52 | 47.68735 | 155.49451 | 34282 ft | 363 kts | 228° |
| 2026-05-04 22:53 | 47.65512 | 155.43739 | 34284 ft | 364 kts | 229° |
| 2026-05-04 22:53 | 47.62255 | 155.37979 | 34284 ft | 364 kts | 229° |
| 2026-05-04 22:54 | 47.60637 | 155.35121 | 34177 ft | 363 kts | 229° |
| 2026-05-04 22:54 | 47.58998 | 155.32233 | 34287 ft | 367 kts | 229° |
| 2026-05-04 22:54 | 47.55725 | 155.26468 | 34313 ft | 368 kts | 228° |
| 2026-05-04 22:55 | 47.52441 | 155.20695 | 34287 ft | 367 kts | 228° |
| 2026-05-04 22:55 | 47.49146 | 155.14917 | 34295 ft | 366 kts | 229° |
| 2026-05-04 22:56 | 47.45884 | 155.09210 | 34296 ft | 367 kts | 229° |
| 2026-05-04 22:56 | 47.42583 | 155.03447 | 34295 ft | 368 kts | 228° |
| 2026-05-04 22:57 | 47.39304 | 154.97733 | 34300 ft | 369 kts | 228° |
| 2026-05-04 22:57 | 47.36008 | 154.92003 | 34294 ft | 366 kts | 228° |
| 2026-05-04 22:58 | 47.32701 | 154.86264 | 34319 ft | 367 kts | 228° |
| 2026-05-04 22:58 | 47.29408 | 154.80563 | 34286 ft | 367 kts | 228° |
| 2026-05-04 22:59 | 47.26086 | 154.74824 | 34294 ft | 366 kts | 229° |
| 2026-05-04 22:59 | 47.22781 | 154.69125 | 34332 ft | 369 kts | 228° |
| 2026-05-04 23:00 | 47.19472 | 154.63434 | 34305 ft | 369 kts | 229° |
| 2026-05-04 23:00 | 47.16154 | 154.57736 | 34318 ft | 367 kts | 229° |
| 2026-05-04 23:01 | 47.12845 | 154.52068 | 34306 ft | 370 kts | 229° |
| 2026-05-04 23:01 | 47.09499 | 154.46346 | 34329 ft | 369 kts | 228° |
| 2026-05-04 23:02 | 47.06185 | 154.40691 | 34319 ft | 367 kts | 228° |
| 2026-05-04 23:02 | 47.02831 | 154.34981 | 34292 ft | 371 kts | 227° |
| 2026-05-04 23:03 | 46.99448 | 154.29234 | 34313 ft | 372 kts | 227° |
| 2026-05-04 23:03 | 46.96095 | 154.23550 | 34353 ft | 369 kts | 228° |
| 2026-05-04 23:04 | 46.92759 | 154.17905 | 34352 ft | 370 kts | 228° |
| 2026-05-04 23:04 | 46.89396 | 154.12227 | 34361 ft | 369 kts | 228° |
| 2026-05-04 23:05 | 46.86021 | 154.06543 | 34354 ft | 371 kts | 228° |
| 2026-05-04 23:05 | 46.82642 | 154.00862 | 34379 ft | 370 kts | 229° |
| 2026-05-04 23:06 | 46.79283 | 153.95226 | 34375 ft | 371 kts | 228° |
| 2026-05-04 23:06 | 46.75911 | 153.89581 | 34373 ft | 371 kts | 228° |
| 2026-05-04 23:07 | 46.72530 | 153.83931 | 34379 ft | 371 kts | 228° |
| 2026-05-04 23:07 | 46.69154 | 153.78302 | 34382 ft | 370 kts | 229° |
| 2026-05-04 23:08 | 46.65779 | 153.72687 | 34383 ft | 371 kts | 229° |
| 2026-05-04 23:08 | 46.62390 | 153.67059 | 34386 ft | 367 kts | 228° |
| 2026-05-04 23:09 | 46.58998 | 153.61438 | 34409 ft | 370 kts | 229° |
| 2026-05-04 23:09 | 46.55625 | 153.55861 | 34399 ft | 369 kts | 229° |
| 2026-05-04 23:10 | 46.52232 | 153.50261 | 34414 ft | 372 kts | 229° |
| 2026-05-04 23:10 | 46.48832 | 153.44663 | 34416 ft | 368 kts | 229° |
| 2026-05-04 23:11 | 46.45448 | 153.39101 | 34394 ft | 371 kts | 228° |
| 2026-05-04 23:11 | 46.42039 | 153.33508 | 34416 ft | 369 kts | 228° |
| 2026-05-04 23:12 | 46.38643 | 153.27951 | 34421 ft | 373 kts | 229° |
| 2026-05-04 23:12 | 46.35217 | 153.22354 | 34427 ft | 370 kts | 228° |
| 2026-05-04 23:13 | 46.31805 | 153.16792 | 34427 ft | 374 kts | 229° |
| 2026-05-04 23:13 | 46.28361 | 153.11189 | 34436 ft | 372 kts | 229° |
| 2026-05-04 23:14 | 46.24937 | 153.05631 | 34440 ft | 371 kts | 228° |
| 2026-05-04 23:14 | 46.21505 | 153.00079 | 34451 ft | 371 kts | 228° |
| 2026-05-04 23:15 | 46.18026 | 152.94514 | 34859 ft | 378 kts | 228° |
| 2026-05-04 23:15 | 46.16260 | 152.91695 | 35305 ft | 376 kts | 227° |
| 2026-05-04 23:15 | 46.14497 | 152.88881 | 35456 ft | 379 kts | 228° |
| 2026-05-04 23:16 | 46.10990 | 152.83298 | 35459 ft | 376 kts | 227° |
| 2026-05-04 23:16 | 46.07459 | 152.77687 | 35460 ft | 377 kts | 228° |
| 2026-05-04 23:17 | 46.03951 | 152.72125 | 35470 ft | 375 kts | 228° |
| 2026-05-04 23:17 | 46.00469 | 152.66614 | 35454 ft | 376 kts | 227° |
| 2026-05-04 23:18 | 45.96952 | 152.61061 | 35470 ft | 374 kts | 229° |
| 2026-05-04 23:18 | 45.93452 | 152.55545 | 35468 ft | 377 kts | 229° |
| 2026-05-04 23:19 | 45.89948 | 152.50034 | 35477 ft | 373 kts | 228° |
| 2026-05-04 23:19 | 45.86419 | 152.44495 | 35514 ft | 379 kts | 228° |
| 2026-05-04 23:20 | 45.82890 | 152.38966 | 35511 ft | 374 kts | 228° |
| 2026-05-04 23:20 | 45.79363 | 152.33453 | 35532 ft | 377 kts | 227° |
| 2026-05-04 23:21 | 45.75840 | 152.27956 | 35537 ft | 377 kts | 227° |
| 2026-05-04 23:21 | 45.72329 | 152.22490 | 35532 ft | 376 kts | 227° |
| 2026-05-04 23:22 | 45.68760 | 152.16943 | 35550 ft | 375 kts | 228° |
| 2026-05-04 23:22 | 45.65239 | 152.11482 | 35550 ft | 374 kts | 227° |
| 2026-05-04 23:23 | 45.61730 | 152.06053 | 35536 ft | 374 kts | 227° |
| 2026-05-04 23:23 | 45.58191 | 152.00586 | 35551 ft | 375 kts | 227° |
| 2026-05-04 23:24 | 45.54670 | 151.95157 | 35548 ft | 374 kts | 228° |
| 2026-05-04 23:24 | 45.51160 | 151.89758 | 35554 ft | 377 kts | 228° |
| 2026-05-04 23:25 | 45.47620 | 151.84322 | 35549 ft | 373 kts | 227° |
| 2026-05-04 23:25 | 45.44084 | 151.78903 | 35640 ft | 377 kts | 228° |
| 2026-05-04 23:26 | 45.40561 | 151.73515 | 35562 ft | 369 kts | 228° |
| 2026-05-04 23:26 | 45.37068 | 151.68184 | 35561 ft | 373 kts | 227° |
| 2026-05-04 23:27 | 45.33519 | 151.62778 | 35569 ft | 370 kts | 227° |
| 2026-05-04 23:27 | 45.29995 | 151.57420 | 35566 ft | 373 kts | 228° |
| 2026-05-04 23:28 | 45.26465 | 151.52063 | 35571 ft | 370 kts | 227° |
| 2026-05-04 23:28 | 45.22932 | 151.46713 | 35553 ft | 374 kts | 228° |
| 2026-05-04 23:29 | 45.19399 | 151.41373 | 35570 ft | 370 kts | 228° |
| 2026-05-04 23:29 | 45.15880 | 151.36064 | 35579 ft | 371 kts | 228° |
| 2026-05-04 23:30 | 45.12360 | 151.30765 | 35596 ft | 370 kts | 227° |
| 2026-05-04 23:30 | 45.08859 | 151.25502 | 35594 ft | 369 kts | 227° |
| 2026-05-04 23:31 | 45.05329 | 151.20207 | 35594 ft | 372 kts | 227° |
| 2026-05-04 23:31 | 45.01770 | 151.14880 | 35613 ft | 372 kts | 227° |
| 2026-05-04 23:32 | 44.98226 | 151.09586 | 35605 ft | 370 kts | 227° |
| 2026-05-04 23:32 | 44.94697 | 151.04321 | 35602 ft | 371 kts | 227° |
| 2026-05-04 23:33 | 44.91132 | 150.99016 | 35606 ft | 373 kts | 227° |
| 2026-05-04 23:33 | 44.87559 | 150.93707 | 35626 ft | 372 kts | 227° |
| 2026-05-04 23:34 | 44.83990 | 150.88415 | 35635 ft | 371 kts | 227° |
| 2026-05-04 23:34 | 44.80443 | 150.83168 | 35638 ft | 371 kts | 227° |
| 2026-05-04 23:35 | 44.76877 | 150.77901 | 35638 ft | 372 kts | 226° |
| 2026-05-04 23:35 | 44.73318 | 150.72655 | 35638 ft | 370 kts | 227° |
| 2026-05-04 23:36 | 44.69749 | 150.67403 | 35635 ft | 371 kts | 227° |
| 2026-05-04 23:36 | 44.66173 | 150.62151 | 35644 ft | 372 kts | 227° |
| 2026-05-04 23:37 | 44.62630 | 150.56957 | 35652 ft | 372 kts | 227° |
| 2026-05-04 23:37 | 44.59030 | 150.51691 | 35655 ft | 372 kts | 227° |
| 2026-05-04 23:38 | 44.55469 | 150.46490 | 35654 ft | 371 kts | 227° |
| 2026-05-04 23:38 | 44.51884 | 150.41266 | 35658 ft | 372 kts | 227° |
| 2026-05-04 23:39 | 44.48291 | 150.36040 | 35670 ft | 373 kts | 226° |
| 2026-05-04 23:39 | 44.44707 | 150.30837 | 35680 ft | 372 kts | 226° |
| 2026-05-04 23:40 | 44.41102 | 150.25610 | 35688 ft | 374 kts | 226° |
| 2026-05-04 23:40 | 44.37503 | 150.20404 | 35692 ft | 373 kts | 226° |
| 2026-05-04 23:41 | 44.33896 | 150.15198 | 35693 ft | 375 kts | 226° |
| 2026-05-04 23:41 | 44.30255 | 150.09952 | 35696 ft | 373 kts | 227° |
| 2026-05-04 23:42 | 44.26650 | 150.04765 | 35699 ft | 374 kts | 226° |
| 2026-05-04 23:42 | 44.23021 | 149.99556 | 35483 ft | 374 kts | 227° |
| 2026-05-04 23:43 | 44.21222 | 149.96977 | 35789 ft | 375 kts | 227° |
| 2026-05-04 23:43 | 44.19405 | 149.94374 | 35716 ft | 377 kts | 227° |
| 2026-05-04 23:43 | 44.15761 | 149.89163 | 35707 ft | 374 kts | 226° |
| 2026-05-04 23:44 | 44.12162 | 149.84024 | 35704 ft | 374 kts | 226° |
| 2026-05-04 23:44 | 44.08512 | 149.78825 | 35705 ft | 375 kts | 227° |
| 2026-05-04 23:45 | 44.04888 | 149.73671 | 35708 ft | 375 kts | 227° |
| 2026-05-04 23:45 | 44.01243 | 149.68495 | 35712 ft | 375 kts | 226° |
| 2026-05-04 23:46 | 43.97596 | 149.63329 | 35724 ft | 376 kts | 226° |
| 2026-05-04 23:46 | 43.93924 | 149.58136 | 35730 ft | 377 kts | 227° |
| 2026-05-04 23:47 | 43.90259 | 149.52962 | 35725 ft | 375 kts | 226° |
| 2026-05-04 23:47 | 43.86610 | 149.47819 | 35747 ft | 376 kts | 226° |
| 2026-05-04 23:48 | 43.82942 | 149.42662 | 35750 ft | 375 kts | 226° |
| 2026-05-04 23:48 | 43.79257 | 149.37491 | 35754 ft | 376 kts | 227° |
| 2026-05-04 23:49 | 43.75573 | 149.32327 | 35771 ft | 378 kts | 226° |
| 2026-05-04 23:49 | 43.71907 | 149.27200 | 35771 ft | 378 kts | 226° |
| 2026-05-04 23:50 | 43.68207 | 149.22037 | 35766 ft | 376 kts | 226° |
| 2026-05-04 23:50 | 43.64508 | 149.16882 | 35768 ft | 379 kts | 226° |
| 2026-05-04 23:51 | 43.60802 | 149.11729 | 35769 ft | 377 kts | 226° |
| 2026-05-04 23:51 | 43.57108 | 149.06599 | 35768 ft | 378 kts | 226° |
| 2026-05-04 23:52 | 43.53423 | 149.01494 | 35777 ft | 377 kts | 226° |
| 2026-05-04 23:52 | 43.49714 | 148.96364 | 35778 ft | 377 kts | 226° |
| 2026-05-04 23:53 | 43.46023 | 148.91269 | 35790 ft | 377 kts | 226° |
| 2026-05-04 23:53 | 43.42303 | 148.86142 | 35791 ft | 378 kts | 226° |
| 2026-05-04 23:54 | 43.38575 | 148.81015 | 35795 ft | 380 kts | 226° |
| 2026-05-04 23:54 | 43.34874 | 148.75935 | 35797 ft | 377 kts | 226° |
| 2026-05-04 23:55 | 43.31175 | 148.70865 | 35792 ft | 378 kts | 226° |
| 2026-05-04 23:56 | 43.25576 | 148.63209 | 35790 ft | 377 kts | 225° |
| 2026-05-04 23:56 | 43.21861 | 148.58142 | 35789 ft | 378 kts | 226° |
| 2026-05-04 23:57 | 43.18147 | 148.53084 | 35790 ft | 378 kts | 226° |
| 2026-05-04 23:57 | 43.14411 | 148.48007 | 35787 ft | 379 kts | 226° |
| 2026-05-04 23:58 | 43.10668 | 148.42928 | 35836 ft | 378 kts | 226° |
| 2026-05-04 23:58 | 43.06900 | 148.37826 | 35797 ft | 382 kts | 226° |
| 2026-05-04 23:58 | 43.05014 | 148.35275 | 35666 ft | 377 kts | 226° |
| 2026-05-04 23:59 | 43.03153 | 148.32761 | 35803 ft | 381 kts | 226° |
| 2026-05-04 23:59 | 42.99387 | 148.27679 | 35805 ft | 380 kts | 225° |
| 2026-05-05 00:00 | 42.95623 | 148.22609 | 35812 ft | 381 kts | 225° |
| 2026-05-05 00:00 | 42.91848 | 148.17534 | 35825 ft | 381 kts | 226° |
| 2026-05-05 00:01 | 42.88068 | 148.12462 | 35847 ft | 381 kts | 225° |
| 2026-05-05 00:01 | 42.84290 | 148.07402 | 35841 ft | 381 kts | 225° |
| 2026-05-05 00:02 | 42.80516 | 148.02354 | 35850 ft | 382 kts | 225° |
| 2026-05-05 00:02 | 42.76753 | 147.97333 | 35844 ft | 381 kts | 225° |
| 2026-05-05 00:03 | 42.72940 | 147.92252 | 35862 ft | 384 kts | 225° |
| 2026-05-05 00:03 | 42.69149 | 147.87212 | 35854 ft | 383 kts | 226° |
| 2026-05-05 00:04 | 42.65363 | 147.82185 | 36012 ft | 382 kts | 226° |
| 2026-05-05 00:04 | 42.63468 | 147.79674 | 35874 ft | 381 kts | 226° |
| 2026-05-05 00:04 | 42.61566 | 147.77153 | 35858 ft | 379 kts | 225° |
| 2026-05-05 00:05 | 42.57785 | 147.72153 | 35856 ft | 383 kts | 226° |
| 2026-05-05 00:05 | 42.53966 | 147.67110 | 35855 ft | 380 kts | 226° |
| 2026-05-05 00:06 | 42.50147 | 147.62076 | 35868 ft | 383 kts | 225° |
| 2026-05-05 00:06 | 42.46337 | 147.57063 | 35861 ft | 384 kts | 226° |
| 2026-05-05 00:07 | 42.42513 | 147.52042 | 35860 ft | 383 kts | 226° |
| 2026-05-05 00:07 | 42.38688 | 147.47028 | 35865 ft | 383 kts | 226° |
| 2026-05-05 00:08 | 42.34858 | 147.42007 | 35868 ft | 387 kts | 226° |
| 2026-05-05 00:08 | 42.31031 | 147.36997 | 35863 ft | 384 kts | 225° |
| 2026-05-05 00:09 | 42.27176 | 147.31961 | 35892 ft | 384 kts | 225° |
| 2026-05-05 00:09 | 42.23358 | 147.26982 | 35885 ft | 384 kts | 225° |
| 2026-05-05 00:10 | 42.19523 | 147.21989 | 35887 ft | 384 kts | 225° |
| 2026-05-05 00:10 | 42.15670 | 147.16981 | 35890 ft | 387 kts | 225° |
| 2026-05-05 00:11 | 42.11805 | 147.11969 | 35888 ft | 386 kts | 225° |
| 2026-05-05 00:11 | 42.09860 | 147.09448 | 35708 ft | 385 kts | 225° |
| 2026-05-05 00:11 | 42.07941 | 147.06966 | 35898 ft | 388 kts | 225° |
| 2026-05-05 00:12 | 42.04059 | 147.01949 | 35901 ft | 386 kts | 225° |
| 2026-05-05 00:12 | 42.00184 | 146.96948 | 35872 ft | 386 kts | 225° |
| 2026-05-05 00:13 | 41.96297 | 146.91942 | 35888 ft | 390 kts | 225° |
| 2026-05-05 00:13 | 41.94359 | 146.89450 | 36065 ft | 388 kts | 225° |
| 2026-05-05 00:13 | 41.92406 | 146.86942 | 35911 ft | 387 kts | 226° |
| 2026-05-05 00:14 | 41.88533 | 146.81964 | 35919 ft | 386 kts | 226° |
| 2026-05-05 00:14 | 41.84656 | 146.76984 | 35930 ft | 387 kts | 225° |
| 2026-05-05 00:15 | 41.80766 | 146.71999 | 35926 ft | 387 kts | 226° |
| 2026-05-05 00:15 | 41.76899 | 146.67050 | 35918 ft | 385 kts | 225° |
| 2026-05-05 00:16 | 41.73009 | 146.62083 | 35926 ft | 386 kts | 225° |
| 2026-05-05 00:16 | 41.69136 | 146.57144 | 35926 ft | 388 kts | 225° |
| 2026-05-05 00:17 | 41.65219 | 146.52159 | 35929 ft | 390 kts | 225° |
| 2026-05-05 00:17 | 41.61303 | 146.47185 | 35785 ft | 389 kts | 225° |
| 2026-05-05 00:17 | 41.59336 | 146.44688 | 35930 ft | 392 kts | 226° |
| 2026-05-05 00:18 | 41.57341 | 146.42158 | 35971 ft | 394 kts | 225° |
| 2026-05-05 00:18 | 41.53410 | 146.37184 | 35947 ft | 392 kts | 226° |
| 2026-05-05 00:19 | 41.49472 | 146.32208 | 35967 ft | 389 kts | 225° |
| 2026-05-05 00:19 | 41.45534 | 146.27240 | 35969 ft | 389 kts | 225° |
| 2026-05-05 00:20 | 41.41629 | 146.22322 | 35967 ft | 391 kts | 225° |
| 2026-05-05 00:20 | 41.37685 | 146.17364 | 35993 ft | 391 kts | 225° |
| 2026-05-05 00:20 | 41.35701 | 146.14874 | 35886 ft | 390 kts | 225° |
| 2026-05-05 00:21 | 41.33743 | 146.12419 | 35931 ft | 391 kts | 225° |
| 2026-05-05 00:21 | 41.31752 | 146.09923 | 36093 ft | 392 kts | 225° |
| 2026-05-05 00:21 | 41.29782 | 146.07457 | 35960 ft | 388 kts | 225° |
| 2026-05-05 00:22 | 41.25835 | 146.02519 | 35956 ft | 390 kts | 225° |
| 2026-05-05 00:22 | 41.21896 | 145.97604 | 35955 ft | 391 kts | 225° |
| 2026-05-05 00:23 | 41.17920 | 145.92648 | 35967 ft | 394 kts | 225° |
| 2026-05-05 00:23 | 41.13963 | 145.87727 | 35954 ft | 390 kts | 226° |
| 2026-05-05 00:24 | 41.09975 | 145.82774 | 35946 ft | 394 kts | 225° |
| 2026-05-05 00:24 | 41.05983 | 145.77826 | 35957 ft | 391 kts | 225° |
| 2026-05-05 00:25 | 41.02010 | 145.72910 | 35955 ft | 393 kts | 225° |
| 2026-05-05 00:25 | 41.00030 | 145.70464 | 35805 ft | 393 kts | 225° |
| 2026-05-05 00:25 | 40.98012 | 145.67970 | 36126 ft | 395 kts | 225° |
| 2026-05-05 00:25 | 40.96021 | 145.65514 | 35855 ft | 394 kts | 225° |
| 2026-05-05 00:26 | 40.94008 | 145.63032 | 35983 ft | 396 kts | 226° |
| 2026-05-05 00:26 | 40.90009 | 145.58112 | 35991 ft | 393 kts | 226° |
| 2026-05-05 00:27 | 40.86016 | 145.53203 | 36004 ft | 395 kts | 226° |
| 2026-05-05 00:27 | 40.81989 | 145.48262 | 36030 ft | 395 kts | 225° |
| 2026-05-05 00:27 | 40.79989 | 145.45811 | 35928 ft | 395 kts | 226° |
| 2026-05-05 00:28 | 40.77978 | 145.43350 | 35968 ft | 396 kts | 226° |
| 2026-05-05 00:28 | 40.73944 | 145.38419 | 36015 ft | 395 kts | 226° |
| 2026-05-05 00:29 | 40.69911 | 145.33496 | 36008 ft | 396 kts | 226° |
| 2026-05-05 00:29 | 40.65876 | 145.28581 | 35994 ft | 394 kts | 225° |
| 2026-05-05 00:30 | 40.61840 | 145.23673 | 36071 ft | 398 kts | 225° |
| 2026-05-05 00:30 | 40.59804 | 145.21199 | 35896 ft | 392 kts | 226° |
| 2026-05-05 00:30 | 40.57801 | 145.18768 | 35992 ft | 396 kts | 226° |
| 2026-05-05 00:31 | 40.53766 | 145.13876 | 35999 ft | 396 kts | 226° |
| 2026-05-05 00:31 | 40.49721 | 145.08983 | 35973 ft | 392 kts | 225° |
| 2026-05-05 00:32 | 40.45685 | 145.04108 | 36019 ft | 395 kts | 226° |
| 2026-05-05 00:32 | 40.41637 | 144.99228 | 36033 ft | 396 kts | 226° |
| 2026-05-05 00:33 | 40.37593 | 144.94359 | 36001 ft | 394 kts | 226° |
| 2026-05-05 00:33 | 40.33523 | 144.89465 | 36032 ft | 398 kts | 226° |
| 2026-05-05 00:34 | 40.29472 | 144.84605 | 36009 ft | 394 kts | 226° |
| 2026-05-05 00:34 | 40.25463 | 144.79803 | 36000 ft | 394 kts | 226° |
| 2026-05-05 00:35 | 40.21396 | 144.74939 | 36020 ft | 397 kts | 226° |
| 2026-05-05 00:35 | 40.17325 | 144.70077 | 36048 ft | 397 kts | 226° |
| 2026-05-05 00:36 | 40.13279 | 144.65257 | 36015 ft | 394 kts | 226° |
| 2026-05-05 00:36 | 40.09213 | 144.60419 | 36016 ft | 397 kts | 226° |
| 2026-05-05 00:37 | 40.05163 | 144.55608 | 36128 ft | 396 kts | 226° |
| 2026-05-05 00:37 | 40.01113 | 144.50807 | 36023 ft | 392 kts | 226° |
| 2026-05-05 00:38 | 39.97073 | 144.46022 | 36025 ft | 395 kts | 226° |
| 2026-05-05 00:38 | 39.93012 | 144.41223 | 36032 ft | 396 kts | 226° |
| 2026-05-05 00:39 | 39.88939 | 144.36418 | 36045 ft | 396 kts | 226° |
| 2026-05-05 00:39 | 39.84857 | 144.31610 | 36071 ft | 393 kts | 226° |
| 2026-05-05 00:40 | 39.80806 | 144.26846 | 36062 ft | 394 kts | 226° |
| 2026-05-05 00:40 | 39.76729 | 144.22060 | 36068 ft | 394 kts | 226° |
| 2026-05-05 00:41 | 39.72664 | 144.17296 | 36077 ft | 393 kts | 226° |
| 2026-05-05 00:41 | 39.68625 | 144.12570 | 36074 ft | 393 kts | 226° |
| 2026-05-05 00:42 | 39.64560 | 144.07822 | 36065 ft | 393 kts | 226° |
| 2026-05-05 00:42 | 39.60506 | 144.03093 | 36073 ft | 392 kts | 226° |
| 2026-05-05 00:43 | 39.56437 | 143.98355 | 36081 ft | 393 kts | 226° |
| 2026-05-05 00:43 | 39.52386 | 143.93646 | 36083 ft | 393 kts | 226° |
| 2026-05-05 00:44 | 39.48311 | 143.88917 | 36076 ft | 393 kts | 226° |
| 2026-05-05 00:44 | 39.44249 | 143.84212 | 36075 ft | 391 kts | 226° |
| 2026-05-05 00:45 | 39.40190 | 143.79517 | 36068 ft | 392 kts | 226° |
| 2026-05-05 00:45 | 39.36143 | 143.74841 | 36073 ft | 391 kts | 226° |
| 2026-05-05 00:46 | 39.32068 | 143.70143 | 36074 ft | 393 kts | 226° |
| 2026-05-05 00:46 | 39.27970 | 143.65427 | 36081 ft | 391 kts | 227° |
| 2026-05-05 00:47 | 39.23909 | 143.60761 | 36082 ft | 390 kts | 227° |
| 2026-05-05 00:47 | 39.19851 | 143.56104 | 36072 ft | 393 kts | 226° |
| 2026-05-05 00:48 | 39.15770 | 143.51430 | 36082 ft | 392 kts | 227° |
| 2026-05-05 00:48 | 39.11682 | 143.46755 | 36082 ft | 391 kts | 226° |
| 2026-05-05 00:49 | 39.07602 | 143.42094 | 36081 ft | 394 kts | 227° |
| 2026-05-05 00:49 | 39.03510 | 143.37431 | 36079 ft | 391 kts | 227° |
| 2026-05-05 00:50 | 38.99433 | 143.32791 | 36093 ft | 392 kts | 226° |
| 2026-05-05 00:50 | 38.95363 | 143.28165 | 36114 ft | 392 kts | 226° |
| 2026-05-05 00:51 | 38.91287 | 143.23541 | 36112 ft | 393 kts | 226° |
| 2026-05-05 00:51 | 38.87384 | 143.18680 | 36114 ft | 386 kts | 230° |
| 2026-05-05 00:52 | 38.83631 | 143.13702 | 36127 ft | 391 kts | 230° |
| 2026-05-05 00:52 | 38.79843 | 143.08728 | 36117 ft | 388 kts | 230° |
| 2026-05-05 00:53 | 38.76071 | 143.03796 | 36128 ft | 389 kts | 230° |
| 2026-05-05 00:53 | 38.72253 | 142.98822 | 36129 ft | 389 kts | 230° |
| 2026-05-05 00:54 | 38.68444 | 142.93872 | 36128 ft | 390 kts | 230° |
| 2026-05-05 00:54 | 38.64637 | 142.88934 | 36125 ft | 389 kts | 230° |
| 2026-05-05 00:55 | 38.60814 | 142.83984 | 36114 ft | 388 kts | 230° |
| 2026-05-05 00:55 | 38.57027 | 142.79089 | 36116 ft | 389 kts | 230° |
| 2026-05-05 00:56 | 38.53215 | 142.74170 | 36116 ft | 389 kts | 230° |
| 2026-05-05 00:56 | 38.51310 | 142.71715 | 35986 ft | 386 kts | 230° |
| 2026-05-05 00:56 | 38.49433 | 142.69298 | 36107 ft | 390 kts | 230° |
| 2026-05-05 00:57 | 38.45582 | 142.64343 | 36113 ft | 390 kts | 230° |
| 2026-05-05 00:57 | 38.41728 | 142.59393 | 36126 ft | 390 kts | 230° |
| 2026-05-05 00:58 | 38.37942 | 142.54540 | 36133 ft | 387 kts | 230° |
| 2026-05-05 00:58 | 38.34089 | 142.49605 | 36116 ft | 389 kts | 230° |
| 2026-05-05 00:59 | 38.30311 | 142.44746 | 36111 ft | 389 kts | 231° |
| 2026-05-05 00:59 | 38.26540 | 142.39818 | 36109 ft | 389 kts | 231° |
| 2026-05-05 01:00 | 38.22732 | 142.34854 | 36080 ft | 387 kts | 230° |
| 2026-05-05 01:00 | 38.18979 | 142.29971 | 36156 ft | 391 kts | 230° |
| 2026-05-05 01:01 | 38.15214 | 142.25084 | 36128 ft | 386 kts | 230° |
| 2026-05-05 01:01 | 38.11465 | 142.20222 | 36128 ft | 388 kts | 230° |
| 2026-05-05 01:02 | 38.07666 | 142.15306 | 36118 ft | 385 kts | 230° |
| 2026-05-05 01:02 | 38.03922 | 142.10467 | 36123 ft | 388 kts | 231° |
| 2026-05-05 01:03 | 38.00139 | 142.05586 | 36143 ft | 385 kts | 230° |
| 2026-05-05 01:03 | 37.96389 | 142.00755 | 36127 ft | 387 kts | 231° |
| 2026-05-05 01:04 | 37.92625 | 141.95915 | 36142 ft | 385 kts | 230° |
| 2026-05-05 01:04 | 37.86955 | 141.88635 | 36143 ft | 387 kts | 231° |
| 2026-05-05 01:05 | 37.83205 | 141.83832 | 36135 ft | 386 kts | 231° |
| 2026-05-05 01:05 | 37.79433 | 141.79007 | 36143 ft | 384 kts | 231° |
| 2026-05-05 01:06 | 37.75648 | 141.74171 | 36145 ft | 383 kts | 230° |
| 2026-05-05 01:06 | 37.71921 | 141.69420 | 36156 ft | 380 kts | 230° |
| 2026-05-05 01:07 | 37.68175 | 141.64648 | 36135 ft | 382 kts | 231° |
| 2026-05-05 01:07 | 37.64450 | 141.59914 | 36130 ft | 380 kts | 231° |
| 2026-05-05 01:08 | 37.60720 | 141.55179 | 36143 ft | 379 kts | 231° |
| 2026-05-05 01:08 | 37.56967 | 141.50421 | 36137 ft | 378 kts | 231° |
| 2026-05-05 01:09 | 37.53262 | 141.45731 | 36136 ft | 379 kts | 231° |
| 2026-05-05 01:09 | 37.49543 | 141.41032 | 36143 ft | 376 kts | 231° |
| 2026-05-05 01:10 | 37.45787 | 141.36290 | 36124 ft | 379 kts | 231° |
| 2026-05-05 01:10 | 37.42754 | 141.32469 | 36159 ft | 380 kts | 230° |
| 2026-05-05 01:11 | 37.39142 | 141.27924 | 36158 ft | 380 kts | 231° |
| 2026-05-05 01:11 | 37.35429 | 141.23257 | 36157 ft | 378 kts | 231° |
| 2026-05-05 01:12 | 37.31705 | 141.18585 | 36154 ft | 377 kts | 230° |
| 2026-05-05 01:12 | 37.28006 | 141.13950 | 36153 ft | 379 kts | 231° |
| 2026-05-05 01:13 | 37.24279 | 141.09290 | 36157 ft | 374 kts | 231° |
| 2026-05-05 01:13 | 37.20583 | 141.04671 | 36145 ft | 374 kts | 230° |
| 2026-05-05 01:14 | 37.16850 | 141.00012 | 36150 ft | 376 kts | 231° |
| 2026-05-05 01:14 | 37.13349 | 140.95195 | 36147 ft | 373 kts | 236° |
| 2026-05-05 01:15 | 37.10116 | 140.90140 | 36133 ft | 372 kts | 236° |
| 2026-05-05 01:15 | 37.06886 | 140.85101 | 36130 ft | 370 kts | 236° |
| 2026-05-05 01:16 | 37.03654 | 140.80072 | 36128 ft | 372 kts | 236° |
| 2026-05-05 01:16 | 37.00391 | 140.75006 | 36127 ft | 371 kts | 236° |
| 2026-05-05 01:17 | 36.97123 | 140.69940 | 36125 ft | 369 kts | 236° |
| 2026-05-05 01:17 | 36.93880 | 140.64920 | 36130 ft | 372 kts | 236° |
| 2026-05-05 01:18 | 36.90638 | 140.59907 | 36121 ft | 372 kts | 236° |
| 2026-05-05 01:18 | 36.87372 | 140.54871 | 36131 ft | 371 kts | 236° |
| 2026-05-05 01:19 | 36.85717 | 140.52318 | 36147 ft | 369 kts | 236° |
| 2026-05-05 01:19 | 36.83390 | 140.48737 | 36136 ft | 369 kts | 236° |
| 2026-05-05 01:20 | 36.80164 | 140.43773 | 36135 ft | 371 kts | 236° |
| 2026-05-05 01:20 | 36.76940 | 140.38825 | 36131 ft | 367 kts | 236° |
| 2026-05-05 01:21 | 36.73800 | 140.33789 | 36159 ft | 367 kts | 240° |
| 2026-05-05 01:21 | 36.71004 | 140.28459 | 36165 ft | 369 kts | 240° |
| 2026-05-05 01:22 | 36.68199 | 140.23109 | 36160 ft | 367 kts | 240° |
| 2026-05-05 01:22 | 36.65416 | 140.17818 | 36155 ft | 364 kts | 240° |
| 2026-05-05 01:23 | 36.62622 | 140.12515 | 36153 ft | 368 kts | 240° |
| 2026-05-05 01:23 | 36.59816 | 140.07201 | 36149 ft | 368 kts | 240° |
| 2026-05-05 01:24 | 36.56983 | 140.01842 | 36150 ft | 367 kts | 240° |
| 2026-05-05 01:24 | 36.54185 | 139.96559 | 36148 ft | 368 kts | 239° |
| 2026-05-05 01:25 | 36.51377 | 139.91264 | 36148 ft | 366 kts | 240° |
| 2026-05-05 01:25 | 36.48571 | 139.85982 | 36143 ft | 367 kts | 239° |
| 2026-05-05 01:26 | 36.45581 | 139.80843 | 36144 ft | 370 kts | 238° |
| 2026-05-05 01:26 | 36.42553 | 139.75717 | 36141 ft | 365 kts | 238° |
| 2026-05-05 01:27 | 36.39545 | 139.70609 | 36139 ft | 367 kts | 238° |
| 2026-05-05 01:27 | 36.36558 | 139.65501 | 36136 ft | 367 kts | 238° |
| 2026-05-05 01:28 | 36.33562 | 139.60367 | 36135 ft | 368 kts | 238° |
| 2026-05-05 01:28 | 36.30553 | 139.55219 | 36136 ft | 368 kts | 238° |
| 2026-05-05 01:29 | 36.27540 | 139.50073 | 36130 ft | 368 kts | 238° |
| 2026-05-05 01:29 | 36.24530 | 139.44939 | 36127 ft | 368 kts | 238° |
| 2026-05-05 01:30 | 36.21505 | 139.39787 | 36124 ft | 368 kts | 238° |
| 2026-05-05 01:30 | 36.18493 | 139.34666 | 36124 ft | 365 kts | 237° |
| 2026-05-05 01:31 | 36.15761 | 139.29379 | 36140 ft | 362 kts | 246° |
| 2026-05-05 01:31 | 36.13654 | 139.23729 | 35904 ft | 362 kts | 246° |
| 2026-05-05 01:32 | 36.12601 | 139.20892 | 36132 ft | 363 kts | 247° |
| 2026-05-05 01:32 | 36.11542 | 139.18042 | 36135 ft | 367 kts | 246° |
| 2026-05-05 01:32 | 36.09428 | 139.12364 | 36148 ft | 364 kts | 246° |
| 2026-05-05 01:33 | 36.07318 | 139.06711 | 36143 ft | 365 kts | 246° |
| 2026-05-05 01:33 | 36.05196 | 139.01036 | 36160 ft | 364 kts | 246° |
| 2026-05-05 01:34 | 36.03067 | 138.95351 | 36125 ft | 365 kts | 246° |
| 2026-05-05 01:34 | 36.00933 | 138.89664 | 36138 ft | 365 kts | 246° |
| 2026-05-05 01:35 | 35.98785 | 138.83949 | 36127 ft | 364 kts | 246° |
| 2026-05-05 01:35 | 35.96644 | 138.78265 | 36117 ft | 364 kts | 246° |
| 2026-05-05 01:36 | 35.94509 | 138.72604 | 36116 ft | 364 kts | 246° |
| 2026-05-05 01:36 | 35.92354 | 138.66902 | 36116 ft | 364 kts | 246° |
| 2026-05-05 01:37 | 35.90211 | 138.61243 | 36111 ft | 366 kts | 246° |
| 2026-05-05 01:37 | 35.88052 | 138.55562 | 36133 ft | 365 kts | 246° |
| 2026-05-05 01:38 | 35.85895 | 138.49908 | 36143 ft | 365 kts | 246° |
| 2026-05-05 01:38 | 35.83734 | 138.44252 | 36135 ft | 364 kts | 246° |
| 2026-05-05 01:39 | 35.81557 | 138.38564 | 36142 ft | 367 kts | 246° |
| 2026-05-05 01:39 | 35.79374 | 138.32872 | 36149 ft | 366 kts | 246° |
| 2026-05-05 01:40 | 35.77200 | 138.27211 | 36158 ft | 367 kts | 246° |
| 2026-05-05 01:40 | 35.75023 | 138.21556 | 36143 ft | 367 kts | 246° |
| 2026-05-05 01:41 | 35.72842 | 138.15900 | 36155 ft | 364 kts | 246° |
| 2026-05-05 01:41 | 35.70671 | 138.10278 | 36153 ft | 365 kts | 245° |
| 2026-05-05 01:42 | 35.68490 | 138.04642 | 36152 ft | 365 kts | 246° |
| 2026-05-05 01:42 | 35.66322 | 137.98999 | 36160 ft | 366 kts | 247° |
| 2026-05-05 01:43 | 35.64274 | 137.93265 | 36147 ft | 365 kts | 247° |
| 2026-05-05 01:43 | 35.62219 | 137.87534 | 36150 ft | 367 kts | 247° |
| 2026-05-05 01:44 | 35.60147 | 137.81786 | 36151 ft | 365 kts | 247° |
| 2026-05-05 01:44 | 35.58052 | 137.76096 | 36141 ft | 366 kts | 246° |
| 2026-05-05 01:45 | 35.55899 | 137.70436 | 36156 ft | 368 kts | 246° |
| 2026-05-05 01:45 | 35.53741 | 137.64758 | 36149 ft | 366 kts | 246° |
| 2026-05-05 01:46 | 35.51569 | 137.59050 | 36160 ft | 367 kts | 246° |
| 2026-05-05 01:46 | 35.49399 | 137.53352 | 36155 ft | 367 kts | 246° |
| 2026-05-05 01:47 | 35.47233 | 137.47676 | 36155 ft | 368 kts | 246° |
| 2026-05-05 01:47 | 35.45088 | 137.42026 | 36165 ft | 368 kts | 246° |
| 2026-05-05 01:48 | 35.43273 | 137.37227 | 36152 ft | 369 kts | 246° |
| 2026-05-05 01:48 | 35.40761 | 137.30602 | 36171 ft | 368 kts | 246° |
| 2026-05-05 01:49 | 35.40020 | 137.28682 | 36170 ft | 368 kts | 244° |
| 2026-05-05 01:50 | 35.32312 | 137.20103 | 36166 ft | 382 kts | 222° |
| 2026-05-05 01:50 | 35.27960 | 137.16354 | 36172 ft | 382 kts | 222° |
| 2026-05-05 01:51 | 35.23593 | 137.12598 | 36170 ft | 383 kts | 222° |
| 2026-05-05 01:51 | 35.19215 | 137.08839 | 36167 ft | 382 kts | 222° |
| 2026-05-05 01:52 | 35.15609 | 137.05748 | 36170 ft | 382 kts | 223° |
| 2026-05-05 01:52 | 35.10530 | 137.01398 | 36175 ft | 380 kts | 222° |
| 2026-05-05 01:53 | 35.06203 | 136.97699 | 36174 ft | 379 kts | 223° |
| 2026-05-05 01:53 | 35.01838 | 136.93970 | 36187 ft | 380 kts | 223° |
| 2026-05-05 01:54 | 34.97503 | 136.90273 | 36194 ft | 381 kts | 223° |
| 2026-05-05 01:54 | 34.93167 | 136.86578 | 36178 ft | 380 kts | 222° |
| 2026-05-05 01:55 | 34.91733 | 136.85359 | 36348 ft | 380 kts | 223° |
| 2026-05-05 01:55 | 34.88849 | 136.82907 | 36199 ft | 374 kts | 222° |
| 2026-05-05 01:55 | 34.85202 | 136.78540 | 36195 ft | 365 kts | 240° |
| 2026-05-05 01:56 | 34.82764 | 136.73201 | 36194 ft | 365 kts | 244° |
| 2026-05-05 01:56 | 34.80776 | 136.68636 | 36190 ft | 364 kts | 244° |
| 2026-05-05 01:57 | 34.78027 | 136.62297 | 36188 ft | 364 kts | 244° |
| 2026-05-05 01:57 | 34.75671 | 136.56862 | 36186 ft | 363 kts | 244° |
| 2026-05-05 01:58 | 34.73312 | 136.51430 | 36180 ft | 362 kts | 244° |
| 2026-05-05 01:58 | 34.70951 | 136.45995 | 36178 ft | 364 kts | 244° |
| 2026-05-05 01:59 | 34.68599 | 136.40590 | 36176 ft | 364 kts | 244° |
| 2026-05-05 01:59 | 34.66221 | 136.35135 | 36177 ft | 365 kts | 244° |
| 2026-05-05 02:00 | 34.63858 | 136.29724 | 36197 ft | 364 kts | 243° |
| 2026-05-05 02:00 | 34.61480 | 136.24284 | 36194 ft | 364 kts | 244° |
| 2026-05-05 02:01 | 34.59097 | 136.18845 | 36191 ft | 364 kts | 244° |
| 2026-05-05 02:01 | 34.56765 | 136.13428 | 36187 ft | 364 kts | 244° |
| 2026-05-05 02:02 | 34.54433 | 136.07970 | 36187 ft | 364 kts | 244° |
| 2026-05-05 02:02 | 34.52111 | 136.02553 | 36185 ft | 364 kts | 244° |
| 2026-05-05 02:03 | 34.49763 | 135.97084 | 36186 ft | 365 kts | 244° |
| 2026-05-05 02:03 | 34.47413 | 135.91621 | 36183 ft | 365 kts | 244° |
| 2026-05-05 02:04 | 34.45064 | 135.86171 | 36185 ft | 364 kts | 244° |
| 2026-05-05 02:04 | 34.42723 | 135.80748 | 36177 ft | 363 kts | 244° |
| 2026-05-05 02:05 | 34.40369 | 135.75304 | 36180 ft | 365 kts | 244° |
| 2026-05-05 02:05 | 34.38023 | 135.69884 | 36180 ft | 365 kts | 244° |
| 2026-05-05 02:06 | 34.35662 | 135.64439 | 36177 ft | 365 kts | 244° |
| 2026-05-05 02:06 | 34.33304 | 135.59013 | 36175 ft | 363 kts | 244° |
| 2026-05-05 02:07 | 34.30940 | 135.53577 | 36176 ft | 365 kts | 244° |
| 2026-05-05 02:07 | 34.28586 | 135.48175 | 36172 ft | 364 kts | 244° |
| 2026-05-05 02:08 | 34.26236 | 135.42792 | 36173 ft | 364 kts | 244° |
| 2026-05-05 02:08 | 34.23873 | 135.37387 | 36171 ft | 363 kts | 244° |
| 2026-05-05 02:09 | 34.21487 | 135.31935 | 36197 ft | 364 kts | 244° |
| 2026-05-05 02:09 | 34.19117 | 135.26532 | 36191 ft | 362 kts | 243° |
| 2026-05-05 02:10 | 34.16759 | 135.21162 | 36193 ft | 363 kts | 244° |
| 2026-05-05 02:10 | 34.14394 | 135.15784 | 36193 ft | 362 kts | 243° |
| 2026-05-05 02:11 | 34.12036 | 135.10432 | 36190 ft | 364 kts | 243° |
| 2026-05-05 02:11 | 34.09656 | 135.05039 | 36189 ft | 363 kts | 244° |
| 2026-05-05 02:12 | 34.06098 | 134.96989 | 36182 ft | 364 kts | 244° |
| 2026-05-05 02:13 | 34.03720 | 134.91620 | 36182 ft | 364 kts | 244° |
| 2026-05-05 02:13 | 34.01332 | 134.86238 | 36177 ft | 363 kts | 244° |
| 2026-05-05 02:14 | 33.98946 | 134.80867 | 36171 ft | 363 kts | 243° |
| 2026-05-05 02:14 | 33.96555 | 134.75494 | 36168 ft | 365 kts | 244° |
| 2026-05-05 02:15 | 33.94161 | 134.70122 | 36163 ft | 365 kts | 244° |
| 2026-05-05 02:15 | 33.91770 | 134.64766 | 36166 ft | 363 kts | 244° |
| 2026-05-05 02:16 | 33.89376 | 134.59410 | 36169 ft | 364 kts | 244° |
| 2026-05-05 02:16 | 33.86972 | 134.54040 | 36162 ft | 364 kts | 243° |
| 2026-05-05 02:17 | 33.84568 | 134.48682 | 36168 ft | 366 kts | 244° |
| 2026-05-05 02:17 | 33.82154 | 134.43306 | 36174 ft | 364 kts | 244° |
| 2026-05-05 02:18 | 33.79742 | 134.37942 | 36169 ft | 364 kts | 244° |
| 2026-05-05 02:18 | 33.77334 | 134.32596 | 36189 ft | 365 kts | 243° |
| 2026-05-05 02:19 | 33.74914 | 134.27232 | 36186 ft | 365 kts | 244° |
| 2026-05-05 02:19 | 33.72484 | 134.21854 | 36185 ft | 365 kts | 244° |
| 2026-05-05 02:20 | 33.70043 | 134.16460 | 36181 ft | 365 kts | 243° |
| 2026-05-05 02:20 | 33.67621 | 134.11116 | 36178 ft | 365 kts | 243° |
| 2026-05-05 02:21 | 33.65183 | 134.05743 | 36179 ft | 367 kts | 243° |
| 2026-05-05 02:21 | 33.62749 | 134.00391 | 36179 ft | 366 kts | 243° |
| 2026-05-05 02:22 | 33.60307 | 133.95027 | 36181 ft | 368 kts | 243° |
| 2026-05-05 02:22 | 33.57845 | 133.89627 | 36178 ft | 367 kts | 243° |
| 2026-05-05 02:23 | 33.55402 | 133.84279 | 36179 ft | 367 kts | 243° |
| 2026-05-05 02:23 | 33.52935 | 133.78883 | 36173 ft | 367 kts | 244° |
| 2026-05-05 02:24 | 33.50489 | 133.73543 | 36172 ft | 367 kts | 243° |
| 2026-05-05 02:24 | 33.48031 | 133.68185 | 36167 ft | 367 kts | 244° |
| 2026-05-05 02:25 | 33.45582 | 133.62856 | 36168 ft | 367 kts | 243° |
| 2026-05-05 02:25 | 33.43137 | 133.57541 | 36166 ft | 367 kts | 243° |
| 2026-05-05 02:26 | 33.40669 | 133.52184 | 36161 ft | 368 kts | 243° |
| 2026-05-05 02:26 | 33.38203 | 133.46843 | 36164 ft | 368 kts | 243° |
| 2026-05-05 02:27 | 33.35738 | 133.41509 | 36160 ft | 367 kts | 243° |
| 2026-05-05 02:27 | 33.33266 | 133.36168 | 36156 ft | 366 kts | 244° |
| 2026-05-05 02:28 | 33.30779 | 133.30803 | 36180 ft | 368 kts | 243° |
| 2026-05-05 02:28 | 33.28314 | 133.25493 | 36179 ft | 368 kts | 243° |
| 2026-05-05 02:29 | 33.25827 | 133.20157 | 36175 ft | 367 kts | 242° |
| 2026-05-05 02:29 | 33.22906 | 133.15024 | 36696 ft | 375 kts | 238° |
| 2026-05-05 02:29 | 33.21430 | 133.12509 | 37280 ft | 371 kts | 238° |
| 2026-05-05 02:30 | 33.19943 | 133.09978 | 37790 ft | 369 kts | 238° |
| 2026-05-05 02:30 | 33.18481 | 133.07489 | 38085 ft | 369 kts | 238° |
| 2026-05-05 02:30 | 33.16984 | 133.04939 | 38173 ft | 372 kts | 238° |
| 2026-05-05 02:31 | 33.14002 | 132.99867 | 38176 ft | 372 kts | 238° |
| 2026-05-05 02:31 | 33.11046 | 132.94846 | 38173 ft | 370 kts | 238° |
| 2026-05-05 02:32 | 33.08082 | 132.89818 | 38172 ft | 370 kts | 239° |
| 2026-05-05 02:32 | 33.05131 | 132.84816 | 38169 ft | 372 kts | 239° |
| 2026-05-05 02:33 | 33.02161 | 132.79791 | 38170 ft | 370 kts | 239° |
| 2026-05-05 02:33 | 32.99188 | 132.74765 | 38165 ft | 371 kts | 238° |
| 2026-05-05 02:34 | 32.96228 | 132.69768 | 38162 ft | 371 kts | 238° |
| 2026-05-05 02:34 | 32.93240 | 132.64729 | 38159 ft | 371 kts | 239° |
| 2026-05-05 02:35 | 32.90270 | 132.59729 | 38157 ft | 370 kts | 239° |
| 2026-05-05 02:35 | 32.87297 | 132.54732 | 38167 ft | 371 kts | 239° |
| 2026-05-05 02:36 | 32.84315 | 132.49725 | 38165 ft | 370 kts | 238° |
| 2026-05-05 02:36 | 32.81337 | 132.44730 | 38162 ft | 370 kts | 238° |
| 2026-05-05 02:37 | 32.78373 | 132.39767 | 38160 ft | 370 kts | 238° |
| 2026-05-05 02:37 | 32.75395 | 132.34787 | 38161 ft | 370 kts | 238° |
| 2026-05-05 02:38 | 32.72385 | 132.29759 | 38181 ft | 372 kts | 238° |
| 2026-05-05 02:38 | 32.69401 | 132.24782 | 38195 ft | 371 kts | 238° |
| 2026-05-05 02:39 | 32.66412 | 132.19804 | 38190 ft | 371 kts | 238° |
| 2026-05-05 02:39 | 32.63450 | 132.14801 | 38184 ft | 371 kts | 239° |
| 2026-05-05 02:40 | 32.60517 | 132.09788 | 38181 ft | 370 kts | 238° |
| 2026-05-05 02:40 | 32.57572 | 132.04771 | 38178 ft | 370 kts | 239° |
| 2026-05-05 02:41 | 32.54620 | 131.99756 | 38179 ft | 371 kts | 238° |
| 2026-05-05 02:41 | 32.51650 | 131.94716 | 38175 ft | 370 kts | 238° |
| 2026-05-05 02:42 | 32.48680 | 131.89684 | 38174 ft | 372 kts | 238° |
| 2026-05-05 02:42 | 32.45734 | 131.84698 | 38171 ft | 372 kts | 238° |
| 2026-05-05 02:43 | 32.42762 | 131.79677 | 38169 ft | 372 kts | 238° |
| 2026-05-05 02:43 | 32.39782 | 131.74649 | 38165 ft | 371 kts | 238° |
| 2026-05-05 02:44 | 32.36812 | 131.69643 | 38163 ft | 371 kts | 238° |
| 2026-05-05 02:44 | 32.33835 | 131.64632 | 38163 ft | 370 kts | 238° |
| 2026-05-05 02:45 | 32.30872 | 131.59651 | 38162 ft | 370 kts | 238° |
| 2026-05-05 02:45 | 32.27911 | 131.54680 | 38161 ft | 370 kts | 238° |
| 2026-05-05 02:46 | 32.24941 | 131.49703 | 38161 ft | 371 kts | 238° |
| 2026-05-05 02:46 | 32.21963 | 131.44716 | 38159 ft | 371 kts | 238° |
| 2026-05-05 02:47 | 32.18986 | 131.39739 | 38156 ft | 371 kts | 238° |
| 2026-05-05 02:47 | 32.16002 | 131.34755 | 38157 ft | 371 kts | 238° |
| 2026-05-05 02:48 | 32.13016 | 131.29776 | 38177 ft | 370 kts | 238° |
| 2026-05-05 02:48 | 32.10030 | 131.24802 | 38178 ft | 370 kts | 238° |
| 2026-05-05 02:49 | 32.07066 | 131.19871 | 38175 ft | 370 kts | 237° |
| 2026-05-05 02:49 | 32.04121 | 131.14980 | 38167 ft | 369 kts | 237° |
| 2026-05-05 02:50 | 32.01127 | 131.10011 | 38165 ft | 369 kts | 238° |
| 2026-05-05 02:50 | 31.98170 | 131.05112 | 38163 ft | 370 kts | 238° |
| 2026-05-05 02:51 | 31.95168 | 131.00145 | 38164 ft | 370 kts | 238° |
| 2026-05-05 02:51 | 31.92188 | 130.95219 | 38163 ft | 371 kts | 238° |
| 2026-05-05 02:52 | 31.89187 | 130.90266 | 38164 ft | 370 kts | 238° |
| 2026-05-05 02:52 | 31.86207 | 130.85353 | 38167 ft | 372 kts | 238° |
| 2026-05-05 02:53 | 31.83199 | 130.80400 | 38171 ft | 373 kts | 237° |
| 2026-05-05 02:53 | 31.80201 | 130.75472 | 38170 ft | 370 kts | 238° |
| 2026-05-05 02:54 | 31.77185 | 130.70520 | 38164 ft | 373 kts | 238° |
| 2026-05-05 02:54 | 31.74160 | 130.65559 | 38166 ft | 372 kts | 237° |
| 2026-05-05 02:55 | 31.71140 | 130.60612 | 38173 ft | 373 kts | 238° |
| 2026-05-05 02:55 | 31.68056 | 130.55692 | 38170 ft | 374 kts | 236° |
| 2026-05-05 02:56 | 31.64886 | 130.50896 | 38158 ft | 374 kts | 236° |
| 2026-05-05 02:56 | 31.61673 | 130.46024 | 38160 ft | 374 kts | 236° |
| 2026-05-05 02:57 | 31.58500 | 130.41213 | 38154 ft | 374 kts | 236° |
| 2026-05-05 02:57 | 31.55294 | 130.36351 | 38144 ft | 375 kts | 236° |
| 2026-05-05 02:58 | 31.52089 | 130.31499 | 38162 ft | 375 kts | 236° |
| 2026-05-05 02:58 | 31.48915 | 130.26695 | 38155 ft | 376 kts | 236° |
| 2026-05-05 02:59 | 31.45714 | 130.21858 | 38147 ft | 373 kts | 236° |
| 2026-05-05 02:59 | 31.42526 | 130.17046 | 38154 ft | 376 kts | 236° |
| 2026-05-05 03:00 | 31.39323 | 130.12216 | 38152 ft | 375 kts | 236° |
| 2026-05-05 03:00 | 31.36099 | 130.07362 | 38147 ft | 375 kts | 236° |
| 2026-05-05 03:01 | 31.32905 | 130.02559 | 38159 ft | 375 kts | 236° |
| 2026-05-05 03:01 | 31.29682 | 129.97719 | 38148 ft | 375 kts | 236° |
| 2026-05-05 03:02 | 31.26466 | 129.92894 | 38152 ft | 374 kts | 236° |
| 2026-05-05 03:02 | 31.23269 | 129.88104 | 38157 ft | 375 kts | 236° |
| 2026-05-05 03:03 | 31.20076 | 129.83327 | 38171 ft | 373 kts | 236° |
| 2026-05-05 03:03 | 31.16863 | 129.78523 | 38167 ft | 374 kts | 236° |
| 2026-05-05 03:04 | 31.13667 | 129.73753 | 38167 ft | 375 kts | 236° |
| 2026-05-05 03:04 | 31.10471 | 129.68986 | 38167 ft | 374 kts | 236° |
| 2026-05-05 03:05 | 31.07261 | 129.64209 | 38163 ft | 372 kts | 236° |
| 2026-05-05 03:05 | 31.04031 | 129.59404 | 38161 ft | 373 kts | 236° |
| 2026-05-05 03:06 | 31.00839 | 129.54662 | 38161 ft | 374 kts | 236° |
| 2026-05-05 03:06 | 30.97617 | 129.49883 | 38153 ft | 374 kts | 236° |
| 2026-05-05 03:07 | 30.94368 | 129.45067 | 38141 ft | 375 kts | 236° |
| 2026-05-05 03:07 | 30.91144 | 129.40295 | 38135 ft | 374 kts | 236° |
| 2026-05-05 03:08 | 30.87931 | 129.35547 | 38146 ft | 376 kts | 236° |
| 2026-05-05 03:08 | 30.84698 | 129.30772 | 38168 ft | 376 kts | 235° |
| 2026-05-05 03:09 | 30.81446 | 129.25977 | 38167 ft | 376 kts | 235° |
| 2026-05-05 03:09 | 30.78189 | 129.21181 | 38165 ft | 377 kts | 235° |
| 2026-05-05 03:10 | 30.74999 | 129.16380 | 38166 ft | 377 kts | 236° |
| 2026-05-05 03:10 | 30.71798 | 129.11491 | 38162 ft | 379 kts | 236° |
| 2026-05-05 03:11 | 30.68617 | 129.06645 | 38162 ft | 376 kts | 236° |
| 2026-05-05 03:11 | 30.65418 | 129.01782 | 38157 ft | 377 kts | 236° |
| 2026-05-05 03:12 | 30.62228 | 128.96941 | 38160 ft | 378 kts | 236° |
| 2026-05-05 03:12 | 30.59020 | 128.92076 | 38156 ft | 378 kts | 236° |
| 2026-05-05 03:13 | 30.55824 | 128.87239 | 38151 ft | 379 kts | 237° |
| 2026-05-05 03:13 | 30.52594 | 128.82353 | 38160 ft | 379 kts | 236° |
| 2026-05-05 03:14 | 30.49380 | 128.77501 | 38153 ft | 378 kts | 236° |
| 2026-05-05 03:14 | 30.46164 | 128.72649 | 38152 ft | 379 kts | 236° |
| 2026-05-05 03:15 | 30.42956 | 128.67818 | 38143 ft | 379 kts | 236° |
| 2026-05-05 03:15 | 30.39741 | 128.62979 | 38150 ft | 379 kts | 236° |
| 2026-05-05 03:16 | 30.36528 | 128.58151 | 38142 ft | 380 kts | 236° |
| 2026-05-05 03:16 | 30.33299 | 128.53304 | 38140 ft | 380 kts | 236° |
| 2026-05-05 03:17 | 30.30053 | 128.48438 | 38142 ft | 378 kts | 236° |
| 2026-05-05 03:17 | 30.26817 | 128.43591 | 38141 ft | 379 kts | 236° |
| 2026-05-05 03:18 | 30.23582 | 128.38754 | 38135 ft | 380 kts | 236° |
| 2026-05-05 03:18 | 30.20355 | 128.33934 | 38154 ft | 380 kts | 235° |
| 2026-05-05 03:19 | 30.15491 | 128.26678 | 38161 ft | 383 kts | 236° |
| 2026-05-05 03:19 | 30.12244 | 128.21843 | 38160 ft | 381 kts | 236° |
| 2026-05-05 03:20 | 30.09003 | 128.17023 | 38153 ft | 381 kts | 236° |
| 2026-05-05 03:20 | 30.05748 | 128.12187 | 38154 ft | 381 kts | 236° |
| 2026-05-05 03:21 | 30.02516 | 128.07391 | 38153 ft | 380 kts | 236° |
| 2026-05-05 03:21 | 29.99257 | 128.02560 | 38148 ft | 381 kts | 235° |
| 2026-05-05 03:22 | 29.95983 | 127.97715 | 38150 ft | 381 kts | 236° |
| 2026-05-05 03:22 | 29.92719 | 127.92888 | 38152 ft | 382 kts | 236° |
| 2026-05-05 03:23 | 29.89453 | 127.88065 | 38154 ft | 380 kts | 236° |
| 2026-05-05 03:23 | 29.86178 | 127.83234 | 38155 ft | 381 kts | 235° |
| 2026-05-05 03:24 | 29.82733 | 127.78587 | 38154 ft | 381 kts | 233° |
| 2026-05-05 03:24 | 29.79276 | 127.73972 | 38150 ft | 382 kts | 234° |
| 2026-05-05 03:25 | 29.75789 | 127.69306 | 38147 ft | 383 kts | 233° |
| 2026-05-05 03:25 | 29.72312 | 127.64652 | 38146 ft | 384 kts | 233° |
| 2026-05-05 03:26 | 29.68848 | 127.60018 | 38140 ft | 384 kts | 233° |
| 2026-05-05 03:26 | 29.65364 | 127.55361 | 38143 ft | 384 kts | 233° |
| 2026-05-05 03:27 | 29.61886 | 127.50718 | 38136 ft | 383 kts | 233° |
| 2026-05-05 03:27 | 29.58421 | 127.46094 | 38136 ft | 384 kts | 234° |
| 2026-05-05 03:28 | 29.55107 | 127.41313 | 38131 ft | 384 kts | 236° |
| 2026-05-05 03:28 | 29.51829 | 127.36537 | 38136 ft | 383 kts | 236° |
| 2026-05-05 03:29 | 29.48509 | 127.31721 | 38155 ft | 383 kts | 235° |
| 2026-05-05 03:29 | 29.45186 | 127.26914 | 38153 ft | 383 kts | 236° |
| 2026-05-05 03:30 | 29.41874 | 127.22131 | 38158 ft | 384 kts | 235° |
| 2026-05-05 03:30 | 29.38567 | 127.17364 | 38154 ft | 385 kts | 235° |
| 2026-05-05 03:31 | 29.35226 | 127.12554 | 38152 ft | 384 kts | 236° |
| 2026-05-05 03:31 | 29.31903 | 127.07776 | 38155 ft | 383 kts | 235° |
| 2026-05-05 03:32 | 29.28568 | 127.02985 | 38152 ft | 384 kts | 235° |
| 2026-05-05 03:32 | 29.25212 | 126.98170 | 38151 ft | 385 kts | 235° |
| 2026-05-05 03:33 | 29.21887 | 126.93407 | 38155 ft | 384 kts | 235° |
| 2026-05-05 03:33 | 29.18526 | 126.88596 | 38148 ft | 384 kts | 235° |
| 2026-05-05 03:34 | 29.15190 | 126.83826 | 38150 ft | 385 kts | 235° |
| 2026-05-05 03:34 | 29.11838 | 126.79040 | 38146 ft | 384 kts | 235° |
| 2026-05-05 03:35 | 29.08482 | 126.74252 | 38147 ft | 386 kts | 235° |
| 2026-05-05 03:35 | 29.05103 | 126.69440 | 38147 ft | 385 kts | 235° |
| 2026-05-05 03:36 | 29.01732 | 126.64643 | 38143 ft | 384 kts | 235° |
| 2026-05-05 03:36 | 28.98385 | 126.59885 | 38144 ft | 386 kts | 236° |
| 2026-05-05 03:37 | 28.94968 | 126.55134 | 38139 ft | 384 kts | 234° |
| 2026-05-05 03:37 | 28.91502 | 126.50473 | 38138 ft | 385 kts | 234° |
| 2026-05-05 03:38 | 28.88058 | 126.45837 | 38142 ft | 384 kts | 234° |
| 2026-05-05 03:38 | 28.84574 | 126.41148 | 38140 ft | 386 kts | 234° |
| 2026-05-05 03:39 | 28.81132 | 126.36517 | 38142 ft | 386 kts | 234° |
| 2026-05-05 03:39 | 28.77659 | 126.31847 | 38156 ft | 386 kts | 234° |
| 2026-05-05 03:40 | 28.74207 | 126.27214 | 38158 ft | 385 kts | 234° |
| 2026-05-05 03:40 | 28.70738 | 126.22561 | 38152 ft | 386 kts | 234° |
| 2026-05-05 03:41 | 28.67255 | 126.17894 | 38148 ft | 386 kts | 234° |
| 2026-05-05 03:41 | 28.63750 | 126.13203 | 38138 ft | 387 kts | 234° |
| 2026-05-05 03:42 | 28.60368 | 126.08463 | 38136 ft | 386 kts | 235° |
| 2026-05-05 03:42 | 28.57027 | 126.03731 | 38131 ft | 385 kts | 236° |
| 2026-05-05 03:43 | 28.53652 | 125.98964 | 38126 ft | 384 kts | 236° |
| 2026-05-05 03:43 | 28.50276 | 125.94205 | 38126 ft | 386 kts | 235° |
| 2026-05-05 03:44 | 28.46892 | 125.89443 | 38121 ft | 387 kts | 235° |
| 2026-05-05 03:44 | 28.43506 | 125.84686 | 38120 ft | 387 kts | 236° |
| 2026-05-05 03:45 | 28.40121 | 125.79936 | 38117 ft | 386 kts | 235° |
| 2026-05-05 03:45 | 28.36726 | 125.75177 | 38116 ft | 387 kts | 235° |
| 2026-05-05 03:46 | 28.33346 | 125.70445 | 38113 ft | 387 kts | 235° |
| 2026-05-05 03:46 | 28.29925 | 125.65660 | 38110 ft | 387 kts | 235° |
| 2026-05-05 03:47 | 28.26531 | 125.60918 | 38108 ft | 387 kts | 235° |
| 2026-05-05 03:47 | 28.23117 | 125.56154 | 38107 ft | 389 kts | 235° |
| 2026-05-05 03:48 | 28.19675 | 125.51356 | 38104 ft | 389 kts | 235° |
| 2026-05-05 03:48 | 28.16260 | 125.46601 | 38103 ft | 390 kts | 234° |
| 2026-05-05 03:49 | 28.12821 | 125.41821 | 38100 ft | 387 kts | 235° |
| 2026-05-05 03:49 | 28.09397 | 125.37064 | 38100 ft | 390 kts | 235° |
| 2026-05-05 03:50 | 28.05965 | 125.32301 | 38118 ft | 390 kts | 234° |
| 2026-05-05 03:50 | 28.02539 | 125.27552 | 38121 ft | 391 kts | 234° |
| 2026-05-05 03:51 | 27.99101 | 125.22793 | 38115 ft | 390 kts | 234° |
| 2026-05-05 03:51 | 27.95673 | 125.18051 | 38116 ft | 391 kts | 235° |
| 2026-05-05 03:52 | 27.92221 | 125.13283 | 38113 ft | 389 kts | 235° |
| 2026-05-05 03:52 | 27.88747 | 125.08488 | 38119 ft | 391 kts | 235° |
| 2026-05-05 03:53 | 27.85311 | 125.03753 | 38116 ft | 393 kts | 235° |
| 2026-05-05 03:53 | 27.81840 | 124.98974 | 38113 ft | 393 kts | 235° |
| 2026-05-05 03:54 | 27.78374 | 124.94206 | 38108 ft | 393 kts | 235° |
| 2026-05-05 03:54 | 27.74908 | 124.89445 | 38111 ft | 392 kts | 235° |
| 2026-05-05 03:55 | 27.71415 | 124.84652 | 38107 ft | 393 kts | 234° |
| 2026-05-05 03:55 | 27.67918 | 124.79860 | 38101 ft | 392 kts | 235° |
| 2026-05-05 03:56 | 27.64437 | 124.75093 | 38106 ft | 391 kts | 235° |
| 2026-05-05 03:56 | 27.60943 | 124.70312 | 38104 ft | 394 kts | 235° |
| 2026-05-05 03:57 | 27.57476 | 124.65568 | 38099 ft | 393 kts | 235° |
| 2026-05-05 03:57 | 27.53985 | 124.60796 | 38096 ft | 393 kts | 235° |
| 2026-05-05 03:58 | 27.50512 | 124.56054 | 38095 ft | 393 kts | 235° |
| 2026-05-05 03:58 | 27.47017 | 124.51287 | 38094 ft | 394 kts | 234° |
| 2026-05-05 03:59 | 27.43499 | 124.46495 | 38089 ft | 395 kts | 235° |
| 2026-05-05 03:59 | 27.40002 | 124.41736 | 38087 ft | 395 kts | 235° |
| 2026-05-05 04:00 | 27.36482 | 124.36952 | 38088 ft | 395 kts | 235° |
| 2026-05-05 04:00 | 27.32959 | 124.32167 | 38109 ft | 395 kts | 235° |
| 2026-05-05 04:01 | 27.29470 | 124.27435 | 38101 ft | 394 kts | 234° |
| 2026-05-05 04:01 | 27.25980 | 124.22707 | 38104 ft | 397 kts | 234° |
| 2026-05-05 04:02 | 27.22457 | 124.17940 | 38102 ft | 394 kts | 234° |
| 2026-05-05 04:02 | 27.18925 | 124.13165 | 38101 ft | 395 kts | 234° |
| 2026-05-05 04:03 | 27.15410 | 124.08418 | 38098 ft | 396 kts | 234° |
| 2026-05-05 04:03 | 27.11875 | 124.03648 | 38100 ft | 399 kts | 234° |
| 2026-05-05 04:04 | 27.08346 | 123.98898 | 38096 ft | 395 kts | 234° |
| 2026-05-05 04:04 | 27.04774 | 123.94149 | 38093 ft | 398 kts | 234° |
| 2026-05-05 04:05 | 27.01216 | 123.89426 | 38094 ft | 397 kts | 234° |
| 2026-05-05 04:05 | 26.97640 | 123.84682 | 38086 ft | 396 kts | 234° |
| 2026-05-05 04:06 | 26.94053 | 123.79928 | 38090 ft | 397 kts | 234° |
| 2026-05-05 04:06 | 26.90516 | 123.75246 | 38092 ft | 395 kts | 234° |
| 2026-05-05 04:07 | 26.86937 | 123.70511 | 38093 ft | 400 kts | 234° |
| 2026-05-05 04:07 | 26.83357 | 123.65781 | 38093 ft | 398 kts | 234° |
| 2026-05-05 04:08 | 26.79762 | 123.61035 | 38090 ft | 400 kts | 234° |
| 2026-05-05 04:08 | 26.76186 | 123.56321 | 38094 ft | 396 kts | 234° |
| 2026-05-05 04:09 | 26.72594 | 123.51590 | 38090 ft | 399 kts | 234° |
| 2026-05-05 04:09 | 26.68984 | 123.46839 | 38082 ft | 398 kts | 234° |
| 2026-05-05 04:10 | 26.65372 | 123.42092 | 38086 ft | 400 kts | 234° |
| 2026-05-05 04:10 | 26.61765 | 123.37358 | 38081 ft | 402 kts | 234° |
| 2026-05-05 04:11 | 26.58138 | 123.32602 | 38102 ft | 401 kts | 234° |
| 2026-05-05 04:11 | 26.54525 | 123.27870 | 38097 ft | 401 kts | 234° |
| 2026-05-05 04:12 | 26.50877 | 123.23098 | 38082 ft | 401 kts | 234° |
| 2026-05-05 04:12 | 26.47253 | 123.18362 | 38096 ft | 400 kts | 234° |
| 2026-05-05 04:13 | 26.43616 | 123.13612 | 38074 ft | 401 kts | 233° |
| 2026-05-05 04:13 | 26.39994 | 123.08890 | 38085 ft | 401 kts | 233° |
| 2026-05-05 04:14 | 26.36375 | 123.04173 | 38079 ft | 402 kts | 233° |
| 2026-05-05 04:14 | 26.32724 | 122.99423 | 38065 ft | 403 kts | 234° |
| 2026-05-05 04:15 | 26.29055 | 122.94656 | 38069 ft | 403 kts | 233° |
| 2026-05-05 04:15 | 26.25375 | 122.89879 | 38054 ft | 404 kts | 234° |
| 2026-05-05 04:16 | 26.21680 | 122.85086 | 38061 ft | 405 kts | 234° |
| 2026-05-05 04:16 | 26.18025 | 122.80353 | 38066 ft | 403 kts | 233° |
| 2026-05-05 04:17 | 26.14337 | 122.75581 | 38039 ft | 406 kts | 233° |
| 2026-05-05 04:17 | 26.10647 | 122.70812 | 38065 ft | 403 kts | 234° |
| 2026-05-05 04:18 | 26.06971 | 122.66065 | 38054 ft | 405 kts | 233° |
| 2026-05-05 04:18 | 26.03306 | 122.61338 | 38050 ft | 404 kts | 233° |
| 2026-05-05 04:19 | 25.99603 | 122.56566 | 38047 ft | 406 kts | 234° |
| 2026-05-05 04:19 | 25.95913 | 122.51816 | 38045 ft | 406 kts | 233° |
| 2026-05-05 04:20 | 25.92231 | 122.47080 | 38042 ft | 405 kts | 233° |
| 2026-05-05 04:20 | 25.88509 | 122.42297 | 38041 ft | 408 kts | 234° |
| 2026-05-05 04:21 | 25.84816 | 122.37556 | 38045 ft | 405 kts | 233° |
| 2026-05-05 04:21 | 25.81106 | 122.32798 | 37966 ft | 402 kts | 233° |
| 2026-05-05 04:22 | 25.79292 | 122.30473 | 37262 ft | 403 kts | 233° |
| 2026-05-05 04:22 | 25.77430 | 122.28086 | 36309 ft | 408 kts | 233° |
| 2026-05-05 04:22 | 25.75580 | 122.25717 | 35412 ft | 411 kts | 233° |
| 2026-05-05 04:22 | 25.73689 | 122.23296 | 34591 ft | 413 kts | 233° |
| 2026-05-05 04:23 | 25.71821 | 122.20908 | 33775 ft | 413 kts | 233° |
| 2026-05-05 04:23 | 25.69931 | 122.18493 | 32912 ft | 415 kts | 233° |
| 2026-05-05 04:23 | 25.68050 | 122.16088 | 32058 ft | 417 kts | 232° |
| 2026-05-05 04:23 | 25.66156 | 122.13670 | 31182 ft | 419 kts | 232° |
| 2026-05-05 04:24 | 25.64233 | 122.11216 | 30481 ft | 416 kts | 232° |
| 2026-05-05 04:24 | 25.62518 | 122.08710 | 29992 ft | 407 kts | 240° |
| 2026-05-05 04:24 | 25.61250 | 122.05946 | 29468 ft | 400 kts | 248° |
| 2026-05-05 04:25 | 25.59639 | 122.00139 | 28323 ft | 392 kts | 253° |
| 2026-05-05 04:25 | 25.58898 | 121.97266 | 27747 ft | 389 kts | 253° |
| 2026-05-05 04:25 | 25.58167 | 121.94423 | 27172 ft | 385 kts | 253° |
| 2026-05-05 04:25 | 25.57443 | 121.91601 | 26606 ft | 381 kts | 253° |
| 2026-05-05 04:26 | 25.56720 | 121.88784 | 26019 ft | 378 kts | 253° |
| 2026-05-05 04:26 | 25.56004 | 121.85991 | 25432 ft | 375 kts | 253° |
| 2026-05-05 04:26 | 25.55304 | 121.83257 | 24864 ft | 371 kts | 253° |
| 2026-05-05 04:26 | 25.54602 | 121.80520 | 24274 ft | 368 kts | 253° |
| 2026-05-05 04:27 | 25.53910 | 121.77821 | 23704 ft | 365 kts | 253° |
| 2026-05-05 04:27 | 25.53222 | 121.75137 | 23137 ft | 362 kts | 253° |
| 2026-05-05 04:27 | 25.52534 | 121.72459 | 22569 ft | 364 kts | 253° |
| 2026-05-05 04:27 | 25.51835 | 121.69740 | 21996 ft | 371 kts | 253° |
| 2026-05-05 04:28 | 25.51135 | 121.67017 | 21395 ft | 370 kts | 253° |
| 2026-05-05 04:28 | 25.50436 | 121.64300 | 20793 ft | 368 kts | 253° |
| 2026-05-05 04:28 | 25.49746 | 121.61621 | 20191 ft | 365 kts | 253° |
| 2026-05-05 04:28 | 25.48981 | 121.58957 | 19579 ft | 361 kts | 247° |
| 2026-05-05 04:29 | 25.47719 | 121.56594 | 18994 ft | 360 kts | 235° |
| 2026-05-05 04:29 | 25.46163 | 121.54428 | 18404 ft | 357 kts | 233° |
| 2026-05-05 04:29 | 25.44572 | 121.52327 | 17767 ft | 355 kts | 232° |
| 2026-05-05 04:29 | 25.42981 | 121.50256 | 17201 ft | 352 kts | 232° |
| 2026-05-05 04:30 | 25.41407 | 121.48221 | 16620 ft | 350 kts | 232° |
| 2026-05-05 04:30 | 25.39840 | 121.46204 | 16043 ft | 348 kts | 232° |
| 2026-05-05 04:30 | 25.38259 | 121.44176 | 15442 ft | 346 kts | 232° |
| 2026-05-05 04:30 | 25.36689 | 121.42167 | 14833 ft | 345 kts | 232° |
| 2026-05-05 04:31 | 25.35144 | 121.40192 | 14232 ft | 342 kts | 232° |
| 2026-05-05 04:31 | 25.33573 | 121.38187 | 13659 ft | 340 kts | 232° |
| 2026-05-05 04:31 | 25.32040 | 121.36230 | 13087 ft | 338 kts | 232° |
| 2026-05-05 04:31 | 25.30518 | 121.34287 | 12508 ft | 336 kts | 231° |
| 2026-05-05 04:32 | 25.28980 | 121.32327 | 11954 ft | 334 kts | 231° |
| 2026-05-05 04:32 | 25.27462 | 121.30392 | 11437 ft | 331 kts | 231° |
| 2026-05-05 04:32 | 25.25999 | 121.28529 | 11315 ft | 316 kts | 231° |
| 2026-05-05 04:32 | 25.24583 | 121.26728 | 11290 ft | 299 kts | 232° |
| 2026-05-05 04:33 | 25.23257 | 121.25041 | 11253 ft | 284 kts | 232° |
| 2026-05-05 04:33 | 25.22003 | 121.23445 | 11131 ft | 270 kts | 232° |
| 2026-05-05 04:33 | 25.20799 | 121.21912 | 10688 ft | 263 kts | 231° |
| 2026-05-05 04:33 | 25.19620 | 121.20410 | 10392 ft | 255 kts | 231° |
| 2026-05-05 04:34 | 25.18469 | 121.18946 | 10179 ft | 250 kts | 231° |
| 2026-05-05 04:34 | 25.17339 | 121.17510 | 9947 ft | 247 kts | 231° |
| 2026-05-05 04:34 | 25.16165 | 121.16015 | 9579 ft | 264 kts | 231° |
| 2026-05-05 04:34 | 25.14954 | 121.14476 | 9216 ft | 265 kts | 231° |
| 2026-05-05 04:35 | 25.13747 | 121.12946 | 8862 ft | 265 kts | 230° |
| 2026-05-05 04:35 | 25.12545 | 121.11420 | 8523 ft | 264 kts | 231° |
| 2026-05-05 04:35 | 25.11328 | 121.09875 | 8181 ft | 264 kts | 230° |
| 2026-05-05 04:35 | 25.10133 | 121.08357 | 7835 ft | 263 kts | 230° |
| 2026-05-05 04:36 | 25.08928 | 121.06825 | 7509 ft | 263 kts | 230° |
| 2026-05-05 04:36 | 25.07737 | 121.05313 | 7173 ft | 262 kts | 229° |
| 2026-05-05 04:36 | 25.06543 | 121.03797 | 6842 ft | 261 kts | 230° |
| 2026-05-05 04:36 | 25.05356 | 121.02290 | 6523 ft | 259 kts | 229° |
| 2026-05-05 04:37 | 25.04181 | 121.00800 | 6204 ft | 258 kts | 229° |
| 2026-05-05 04:37 | 25.02999 | 120.99301 | 5876 ft | 257 kts | 229° |
| 2026-05-05 04:37 | 25.01833 | 120.97823 | 5572 ft | 255 kts | 229° |
| 2026-05-05 04:37 | 25.00678 | 120.96358 | 5276 ft | 253 kts | 229° |
| 2026-05-05 04:38 | 24.99366 | 120.95086 | 4955 ft | 253 kts | 208° |
| 2026-05-05 04:38 | 24.97674 | 120.94621 | 4645 ft | 254 kts | 180° |
| 2026-05-05 04:38 | 24.95961 | 120.95126 | 4348 ft | 256 kts | 150° |
| 2026-05-05 04:38 | 24.94629 | 120.96365 | 4161 ft | 246 kts | 133° |
| 2026-05-05 04:39 | 24.93556 | 120.97760 | 4173 ft | 231 kts | 130° |
| 2026-05-05 04:39 | 24.92594 | 120.99131 | 4082 ft | 223 kts | 125° |
| 2026-05-05 04:39 | 24.92091 | 121.00714 | 3977 ft | 218 kts | 93° |
| 2026-05-05 04:39 | 24.92394 | 121.02337 | 3823 ft | 218 kts | 65° |
| 2026-05-05 04:40 | 24.93227 | 121.03740 | 3372 ft | 225 kts | 51° |
| 2026-05-05 04:40 | 24.94250 | 121.05074 | 2913 ft | 229 kts | 49° |
| 2026-05-05 04:40 | 24.95292 | 121.06385 | 2535 ft | 222 kts | 49° |
| 2026-05-05 04:40 | 24.96234 | 121.07574 | 2439 ft | 192 kts | 49° |
| 2026-05-05 04:41 | 24.97089 | 121.08659 | 2451 ft | 183 kts | 49° |
| 2026-05-05 04:41 | 24.97886 | 121.09729 | 2444 ft | 178 kts | 51° |
| 2026-05-05 04:41 | 24.98664 | 121.10752 | 2426 ft | 167 kts | 49° |
| 2026-05-05 04:41 | 24.99425 | 121.11697 | 2387 ft | 162 kts | 49° |
| 2026-05-05 04:42 | 25.00162 | 121.12617 | 2177 ft | 157 kts | 49° |
| 2026-05-05 04:42 | 25.00873 | 121.13512 | 1987 ft | 152 kts | 50° |
| 2026-05-05 04:42 | 25.01568 | 121.14387 | 1794 ft | 152 kts | 50° |
| 2026-05-05 04:42 | 25.02258 | 121.15257 | 1595 ft | 150 kts | 51° |
| 2026-05-05 04:43 | 25.02958 | 121.16141 | 1400 ft | 152 kts | 51° |
| 2026-05-05 04:43 | 25.03634 | 121.16994 | 1201 ft | 142 kts | 51° |
| 2026-05-05 04:43 | 25.04253 | 121.17778 | 1027 ft | 136 kts | 51° |
| 2026-05-05 04:43 | 25.04880 | 121.18569 | 843 ft | 135 kts | 50° |
| 2026-05-05 04:44 | 25.05510 | 121.19366 | 663 ft | 138 kts | 50° |
| 2026-05-05 04:44 | 25.06150 | 121.20151 | 422 ft | 140 kts | 50° |
| 2026-05-05 04:44 | 25.06779 | 121.20955 | 312 ft | 138 kts | 50° |
| 2026-05-05 04:44 | 25.07425 | 121.21771 | 141 ft | 138 kts | 50° |
| 2026-05-05 04:45 | 25.07996 | 121.22497 | 122 ft | 99 kts | 49° |
| 2026-05-05 04:45 | 25.08229 | 121.22791 | 122 ft | 33 kts | 49° |
| 2026-05-05 04:45 | 25.08360 | 121.22968 | 122 ft | 28 kts | 55° |
| 2026-05-05 04:45 | 25.08426 | 121.23128 | 122 ft | 21 kts | 75° |
| 2026-05-05 04:46 | 25.08447 | 121.23251 | 122 ft | 9 kts | 76° |
| 2026-05-05 04:46 | 25.08458 | 121.23307 | 122 ft | 6 kts | 76° |
| 2026-05-05 04:46 | 25.08467 | 121.23356 | 122 ft | 6 kts | 78° |
| 2026-05-05 04:46 | 25.08475 | 121.23407 | 122 ft | 6 kts | 87° |
| 2026-05-05 04:47 | 25.08460 | 121.23457 | 122 ft | 7 kts | 118° |
| 2026-05-05 04:47 | 25.08424 | 121.23488 | 122 ft | 6 kts | 174° |
| 2026-05-05 04:47 | 25.08380 | 121.23471 | 122 ft | 7 kts | 217° |
| 2026-05-05 04:47 | 25.08344 | 121.23430 | 122 ft | 7 kts | 229° |
| 2026-05-05 04:48 | 25.08308 | 121.23383 | 122 ft | 8 kts | 231° |
| 2026-05-05 04:48 | 25.08271 | 121.23334 | 122 ft | 8 kts | 229° |
| 2026-05-05 04:48 | 25.08230 | 121.23284 | 122 ft | 8 kts | 228° |
| 2026-05-05 04:48 | 25.08189 | 121.23232 | 122 ft | 9 kts | 229° |
| 2026-05-05 04:49 | 25.08146 | 121.23177 | 122 ft | 9 kts | 229° |
| 2026-05-05 04:49 | 25.08103 | 121.23122 | 122 ft | 9 kts | 229° |
| 2026-05-05 04:49 | 25.08058 | 121.23064 | 122 ft | 9 kts | 230° |
| 2026-05-05 04:49 | 25.08013 | 121.23006 | 122 ft | 10 kts | 229° |
| 2026-05-05 04:50 | 25.07965 | 121.22948 | 122 ft | 10 kts | 227° |
| 2026-05-05 04:50 | 25.07947 | 121.22926 | 122 ft | 3 kts | 230° |
| 2026-05-05 04:50 | 25.07927 | 121.22900 | 122 ft | 4 kts | 230° |
| 2026-05-05 04:50 | 25.07904 | 121.22869 | 122 ft | 5 kts | 230° |
| 2026-05-05 04:51 | 25.07874 | 121.22853 | 122 ft | 4 kts | 176° |
| 2026-05-05 04:51 | 25.07841 | 121.22870 | 122 ft | 5 kts | 146° |
| 2026-05-05 04:51 | 25.07823 | 121.22884 | 122 ft | 1 kts | 140° |
| 2026-05-05 04:51 | 25.07816 | 121.22890 | 122 ft | 1 kts | 140° |
| 2026-05-05 04:52 | 25.07808 | 121.22898 | 122 ft | 0 kts | 140° |
| 2026-05-05 04:52 | 25.07805 | 121.22900 | 122 ft | 0 kts | 139° |
| 2026-05-05 04:52 | 25.07803 | 121.22903 | 122 ft | 0 kts | 139° |